<?xml version="1.0" encoding="UTF-8" standalone="no" ?>
<gpx xmlns="http://www.topografix.com/GPX/1/1" xmlns:xsi="http://www.w3.org/2001/XMLSchema-instance" xsi:schemaLocation="http://www.topografix.com/GPX/1/1 http://www.topografix.com/GPX/1/1/gpx.xsd" version="1.1" creator="VisuGPX - https://www.visugpx.com">
  <metadata>
    <name>GR20</name>
    <desc><![CDATA[GR20 - Juin 2015]]></desc>
  </metadata>
  <trk>
    <name><![CDATA[GR20 Ciottulu à i Mori - Tighjettu]]></name>
    <trkseg>
      <trkpt lat="42.33497" lon="8.8681">
        <ele>1997</ele>
        <time>2015-06-28T04:47:35Z</time>
      </trkpt>
      <trkpt lat="42.33498" lon="8.86822">
        <ele>1997</ele>
        <time>2015-06-28T04:50:31Z</time>
      </trkpt>
      <trkpt lat="42.335" lon="8.86831">
        <ele>1995</ele>
        <time>2015-06-28T04:51:28Z</time>
      </trkpt>
      <trkpt lat="42.335" lon="8.86832">
        <ele>1994.4</ele>
        <time>2015-06-28T04:51:35Z</time>
      </trkpt>
      <trkpt lat="42.33503" lon="8.86834">
        <ele>1993.8</ele>
        <time>2015-06-28T04:52:28Z</time>
      </trkpt>
      <trkpt lat="42.33515" lon="8.86833">
        <ele>1993.8</ele>
        <time>2015-06-28T04:52:46Z</time>
      </trkpt>
      <trkpt lat="42.33523" lon="8.86834">
        <ele>1992.8</ele>
        <time>2015-06-28T04:52:55Z</time>
      </trkpt>
      <trkpt lat="42.33528" lon="8.86839">
        <ele>1992</ele>
        <time>2015-06-28T04:53:02Z</time>
      </trkpt>
      <trkpt lat="42.33533" lon="8.86848">
        <ele>1990.6</ele>
        <time>2015-06-28T04:53:17Z</time>
      </trkpt>
      <trkpt lat="42.33532" lon="8.86849">
        <ele>1990.4</ele>
        <time>2015-06-28T04:53:19Z</time>
      </trkpt>
      <trkpt lat="42.33534" lon="8.86855">
        <ele>1989.6</ele>
        <time>2015-06-28T04:53:26Z</time>
      </trkpt>
      <trkpt lat="42.33538" lon="8.86864">
        <ele>1988.8</ele>
        <time>2015-06-28T04:53:35Z</time>
      </trkpt>
      <trkpt lat="42.33551" lon="8.86894">
        <ele>1987.8</ele>
        <time>2015-06-28T04:54:01Z</time>
      </trkpt>
      <trkpt lat="42.33554" lon="8.86901">
        <ele>1987.6</ele>
        <time>2015-06-28T04:54:09Z</time>
      </trkpt>
      <trkpt lat="42.33554" lon="8.86903">
        <ele>1987.6</ele>
        <time>2015-06-28T04:54:11Z</time>
      </trkpt>
      <trkpt lat="42.33553" lon="8.86905">
        <ele>1987.8</ele>
        <time>2015-06-28T04:54:14Z</time>
      </trkpt>
      <trkpt lat="42.33549" lon="8.86928">
        <ele>1989</ele>
        <time>2015-06-28T04:54:38Z</time>
      </trkpt>
      <trkpt lat="42.33549" lon="8.86958">
        <ele>1990</ele>
        <time>2015-06-28T04:55:03Z</time>
      </trkpt>
      <trkpt lat="42.33547" lon="8.86982">
        <ele>1991</ele>
        <time>2015-06-28T04:55:24Z</time>
      </trkpt>
      <trkpt lat="42.33545" lon="8.86996">
        <ele>1991.6</ele>
        <time>2015-06-28T04:55:38Z</time>
      </trkpt>
      <trkpt lat="42.33543" lon="8.87003">
        <ele>1992.4</ele>
        <time>2015-06-28T04:55:46Z</time>
      </trkpt>
      <trkpt lat="42.33543" lon="8.8701">
        <ele>1993.6</ele>
        <time>2015-06-28T04:55:55Z</time>
      </trkpt>
      <trkpt lat="42.33544" lon="8.8702">
        <ele>1995</ele>
        <time>2015-06-28T04:56:07Z</time>
      </trkpt>
      <trkpt lat="42.33542" lon="8.87034">
        <ele>1996.2</ele>
        <time>2015-06-28T04:56:23Z</time>
      </trkpt>
      <trkpt lat="42.33538" lon="8.87041">
        <ele>1997.4</ele>
        <time>2015-06-28T04:56:33Z</time>
      </trkpt>
      <trkpt lat="42.33526" lon="8.87072">
        <ele>1998</ele>
        <time>2015-06-28T04:57:12Z</time>
      </trkpt>
      <trkpt lat="42.33525" lon="8.87075">
        <ele>1999</ele>
        <time>2015-06-28T04:57:19Z</time>
      </trkpt>
      <trkpt lat="42.33527" lon="8.87078">
        <ele>2000</ele>
        <time>2015-06-28T04:57:25Z</time>
      </trkpt>
      <trkpt lat="42.33526" lon="8.87081">
        <ele>2001</ele>
        <time>2015-06-28T04:57:32Z</time>
      </trkpt>
      <trkpt lat="42.33526" lon="8.8708">
        <ele>2001.4</ele>
        <time>2015-06-28T04:57:36Z</time>
      </trkpt>
      <trkpt lat="42.33522" lon="8.87086">
        <ele>2002.4</ele>
        <time>2015-06-28T04:57:50Z</time>
      </trkpt>
      <trkpt lat="42.33521" lon="8.8709">
        <ele>2003.4</ele>
        <time>2015-06-28T04:57:57Z</time>
      </trkpt>
      <trkpt lat="42.33521" lon="8.87092">
        <ele>2004.4</ele>
        <time>2015-06-28T04:58:04Z</time>
      </trkpt>
      <trkpt lat="42.33519" lon="8.87099">
        <ele>2005.4</ele>
        <time>2015-06-28T04:58:13Z</time>
      </trkpt>
      <trkpt lat="42.33515" lon="8.8711">
        <ele>2006.8</ele>
        <time>2015-06-28T04:58:27Z</time>
      </trkpt>
      <trkpt lat="42.33514" lon="8.87116">
        <ele>2007.8</ele>
        <time>2015-06-28T04:58:36Z</time>
      </trkpt>
      <trkpt lat="42.33513" lon="8.87122">
        <ele>2008.8</ele>
        <time>2015-06-28T04:58:44Z</time>
      </trkpt>
      <trkpt lat="42.33512" lon="8.87128">
        <ele>2009.8</ele>
        <time>2015-06-28T04:58:52Z</time>
      </trkpt>
      <trkpt lat="42.33513" lon="8.87134">
        <ele>2011</ele>
        <time>2015-06-28T04:59:01Z</time>
      </trkpt>
      <trkpt lat="42.33511" lon="8.87141">
        <ele>2012.4</ele>
        <time>2015-06-28T04:59:11Z</time>
      </trkpt>
      <trkpt lat="42.33509" lon="8.87147">
        <ele>2013.2</ele>
        <time>2015-06-28T04:59:21Z</time>
      </trkpt>
      <trkpt lat="42.33508" lon="8.87155">
        <ele>2014.6</ele>
        <time>2015-06-28T04:59:32Z</time>
      </trkpt>
      <trkpt lat="42.33502" lon="8.87163">
        <ele>2015.4</ele>
        <time>2015-06-28T04:59:55Z</time>
      </trkpt>
      <trkpt lat="42.33504" lon="8.8717">
        <ele>2016.4</ele>
        <time>2015-06-28T05:00:15Z</time>
      </trkpt>
      <trkpt lat="42.33506" lon="8.87171">
        <ele>2017.4</ele>
        <time>2015-06-28T05:00:23Z</time>
      </trkpt>
      <trkpt lat="42.33508" lon="8.87173">
        <ele>2018.6</ele>
        <time>2015-06-28T05:00:31Z</time>
      </trkpt>
      <trkpt lat="42.33508" lon="8.87176">
        <ele>2019.2</ele>
        <time>2015-06-28T05:00:38Z</time>
      </trkpt>
      <trkpt lat="42.33506" lon="8.87179">
        <ele>2020.2</ele>
        <time>2015-06-28T05:00:43Z</time>
      </trkpt>
      <trkpt lat="42.33503" lon="8.8718">
        <ele>2021.8</ele>
        <time>2015-06-28T05:00:51Z</time>
      </trkpt>
      <trkpt lat="42.33504" lon="8.87184">
        <ele>2023</ele>
        <time>2015-06-28T05:01:02Z</time>
      </trkpt>
      <trkpt lat="42.33506" lon="8.87193">
        <ele>2024</ele>
        <time>2015-06-28T05:01:44Z</time>
      </trkpt>
      <trkpt lat="42.33503" lon="8.87202">
        <ele>2024</ele>
        <time>2015-06-28T05:01:53Z</time>
      </trkpt>
      <trkpt lat="42.33498" lon="8.87234">
        <ele>2024</ele>
        <time>2015-06-28T05:02:26Z</time>
      </trkpt>
      <trkpt lat="42.33492" lon="8.87256">
        <ele>2024.6</ele>
        <time>2015-06-28T05:02:45Z</time>
      </trkpt>
      <trkpt lat="42.33492" lon="8.87258">
        <ele>2024.2</ele>
        <time>2015-06-28T05:02:47Z</time>
      </trkpt>
      <trkpt lat="42.33489" lon="8.87264">
        <ele>2023.4</ele>
        <time>2015-06-28T05:02:55Z</time>
      </trkpt>
      <trkpt lat="42.33483" lon="8.87282">
        <ele>2022</ele>
        <time>2015-06-28T05:03:15Z</time>
      </trkpt>
      <trkpt lat="42.3348" lon="8.87291">
        <ele>2022</ele>
        <time>2015-06-28T05:03:24Z</time>
      </trkpt>
      <trkpt lat="42.33474" lon="8.87299">
        <ele>2021.8</ele>
        <time>2015-06-28T05:03:38Z</time>
      </trkpt>
      <trkpt lat="42.33475" lon="8.87303">
        <ele>2022.6</ele>
        <time>2015-06-28T05:03:44Z</time>
      </trkpt>
      <trkpt lat="42.33475" lon="8.87307">
        <ele>2023.8</ele>
        <time>2015-06-28T05:03:51Z</time>
      </trkpt>
      <trkpt lat="42.33475" lon="8.87311">
        <ele>2024.8</ele>
        <time>2015-06-28T05:03:58Z</time>
      </trkpt>
      <trkpt lat="42.33475" lon="8.87313">
        <ele>2025.8</ele>
        <time>2015-06-28T05:04:05Z</time>
      </trkpt>
      <trkpt lat="42.33473" lon="8.87314">
        <ele>2027</ele>
        <time>2015-06-28T05:04:13Z</time>
      </trkpt>
      <trkpt lat="42.33471" lon="8.87317">
        <ele>2028.2</ele>
        <time>2015-06-28T05:04:21Z</time>
      </trkpt>
      <trkpt lat="42.33472" lon="8.87321">
        <ele>2029</ele>
        <time>2015-06-28T05:04:29Z</time>
      </trkpt>
      <trkpt lat="42.33471" lon="8.87325">
        <ele>2030</ele>
        <time>2015-06-28T05:04:35Z</time>
      </trkpt>
      <trkpt lat="42.33471" lon="8.87329">
        <ele>2031.2</ele>
        <time>2015-06-28T05:04:41Z</time>
      </trkpt>
      <trkpt lat="42.33474" lon="8.87333">
        <ele>2032.8</ele>
        <time>2015-06-28T05:04:51Z</time>
      </trkpt>
      <trkpt lat="42.33472" lon="8.87337">
        <ele>2033.6</ele>
        <time>2015-06-28T05:04:59Z</time>
      </trkpt>
      <trkpt lat="42.33471" lon="8.87342">
        <ele>2034.6</ele>
        <time>2015-06-28T05:05:07Z</time>
      </trkpt>
      <trkpt lat="42.33469" lon="8.87349">
        <ele>2036</ele>
        <time>2015-06-28T05:05:17Z</time>
      </trkpt>
      <trkpt lat="42.33466" lon="8.87355">
        <ele>2037.2</ele>
        <time>2015-06-28T05:05:27Z</time>
      </trkpt>
      <trkpt lat="42.33464" lon="8.87361">
        <ele>2038</ele>
        <time>2015-06-28T05:05:37Z</time>
      </trkpt>
      <trkpt lat="42.33458" lon="8.87368">
        <ele>2039</ele>
        <time>2015-06-28T05:06:32Z</time>
      </trkpt>
      <trkpt lat="42.33452" lon="8.87376">
        <ele>2038.2</ele>
        <time>2015-06-28T05:06:42Z</time>
      </trkpt>
      <trkpt lat="42.3345" lon="8.87378">
        <ele>2037.6</ele>
        <time>2015-06-28T05:06:45Z</time>
      </trkpt>
      <trkpt lat="42.3345" lon="8.87383">
        <ele>2037.2</ele>
        <time>2015-06-28T05:06:49Z</time>
      </trkpt>
      <trkpt lat="42.3345" lon="8.87388">
        <ele>2036.6</ele>
        <time>2015-06-28T05:06:53Z</time>
      </trkpt>
      <trkpt lat="42.33447" lon="8.87393">
        <ele>2036.2</ele>
        <time>2015-06-28T05:06:59Z</time>
      </trkpt>
      <trkpt lat="42.33446" lon="8.87397">
        <ele>2035.8</ele>
        <time>2015-06-28T05:07:03Z</time>
      </trkpt>
      <trkpt lat="42.33442" lon="8.87403">
        <ele>2035</ele>
        <time>2015-06-28T05:07:10Z</time>
      </trkpt>
      <trkpt lat="42.3344" lon="8.8741">
        <ele>2034</ele>
        <time>2015-06-28T05:07:17Z</time>
      </trkpt>
      <trkpt lat="42.33436" lon="8.87414">
        <ele>2032.8</ele>
        <time>2015-06-28T05:07:26Z</time>
      </trkpt>
      <trkpt lat="42.33432" lon="8.87417">
        <ele>2031.8</ele>
        <time>2015-06-28T05:07:32Z</time>
      </trkpt>
      <trkpt lat="42.3343" lon="8.87422">
        <ele>2030.4</ele>
        <time>2015-06-28T05:07:40Z</time>
      </trkpt>
      <trkpt lat="42.33429" lon="8.87427">
        <ele>2029.6</ele>
        <time>2015-06-28T05:07:46Z</time>
      </trkpt>
      <trkpt lat="42.33424" lon="8.87432">
        <ele>2028.4</ele>
        <time>2015-06-28T05:07:55Z</time>
      </trkpt>
      <trkpt lat="42.33421" lon="8.87435">
        <ele>2027.2</ele>
        <time>2015-06-28T05:08:02Z</time>
      </trkpt>
      <trkpt lat="42.33418" lon="8.87444">
        <ele>2025.8</ele>
        <time>2015-06-28T05:08:11Z</time>
      </trkpt>
      <trkpt lat="42.33415" lon="8.8745">
        <ele>2025</ele>
        <time>2015-06-28T05:08:18Z</time>
      </trkpt>
      <trkpt lat="42.33414" lon="8.87451">
        <ele>2024.8</ele>
        <time>2015-06-28T05:08:20Z</time>
      </trkpt>
      <trkpt lat="42.33412" lon="8.87455">
        <ele>2023.8</ele>
        <time>2015-06-28T05:08:26Z</time>
      </trkpt>
      <trkpt lat="42.33409" lon="8.8746">
        <ele>2022.6</ele>
        <time>2015-06-28T05:08:34Z</time>
      </trkpt>
      <trkpt lat="42.33406" lon="8.87465">
        <ele>2021.6</ele>
        <time>2015-06-28T05:08:41Z</time>
      </trkpt>
      <trkpt lat="42.33403" lon="8.87467">
        <ele>2020.8</ele>
        <time>2015-06-28T05:08:47Z</time>
      </trkpt>
      <trkpt lat="42.33401" lon="8.87469">
        <ele>2019.8</ele>
        <time>2015-06-28T05:08:52Z</time>
      </trkpt>
      <trkpt lat="42.334" lon="8.87472">
        <ele>2018.8</ele>
        <time>2015-06-28T05:08:58Z</time>
      </trkpt>
      <trkpt lat="42.33397" lon="8.87476">
        <ele>2017.2</ele>
        <time>2015-06-28T05:09:09Z</time>
      </trkpt>
      <trkpt lat="42.33394" lon="8.87482">
        <ele>2016.2</ele>
        <time>2015-06-28T05:09:18Z</time>
      </trkpt>
      <trkpt lat="42.33392" lon="8.87485">
        <ele>2015.2</ele>
        <time>2015-06-28T05:09:26Z</time>
      </trkpt>
      <trkpt lat="42.3339" lon="8.87497">
        <ele>2013.8</ele>
        <time>2015-06-28T05:09:38Z</time>
      </trkpt>
      <trkpt lat="42.33387" lon="8.87504">
        <ele>2013.2</ele>
        <time>2015-06-28T05:09:44Z</time>
      </trkpt>
      <trkpt lat="42.33387" lon="8.87504">
        <ele>2013</ele>
        <time>2015-06-28T05:09:45Z</time>
      </trkpt>
      <trkpt lat="42.33386" lon="8.87509">
        <ele>2011.8</ele>
        <time>2015-06-28T05:09:51Z</time>
      </trkpt>
      <trkpt lat="42.33382" lon="8.87521">
        <ele>2010.6</ele>
        <time>2015-06-28T05:10:05Z</time>
      </trkpt>
      <trkpt lat="42.3338" lon="8.87527">
        <ele>2009.8</ele>
        <time>2015-06-28T05:10:14Z</time>
      </trkpt>
      <trkpt lat="42.3338" lon="8.87531">
        <ele>2009.6</ele>
        <time>2015-06-28T05:10:17Z</time>
      </trkpt>
      <trkpt lat="42.33378" lon="8.87535">
        <ele>2009.6</ele>
        <time>2015-06-28T05:10:21Z</time>
      </trkpt>
      <trkpt lat="42.33377" lon="8.87539">
        <ele>2009.4</ele>
        <time>2015-06-28T05:10:24Z</time>
      </trkpt>
      <trkpt lat="42.33377" lon="8.87542">
        <ele>2009</ele>
        <time>2015-06-28T05:10:27Z</time>
      </trkpt>
      <trkpt lat="42.33374" lon="8.87546">
        <ele>2008.4</ele>
        <time>2015-06-28T05:10:32Z</time>
      </trkpt>
      <trkpt lat="42.33374" lon="8.87548">
        <ele>2008.2</ele>
        <time>2015-06-28T05:10:34Z</time>
      </trkpt>
      <trkpt lat="42.33373" lon="8.87549">
        <ele>2007.8</ele>
        <time>2015-06-28T05:10:36Z</time>
      </trkpt>
      <trkpt lat="42.33369" lon="8.87554">
        <ele>2006</ele>
        <time>2015-06-28T05:10:43Z</time>
      </trkpt>
      <trkpt lat="42.33366" lon="8.87558">
        <ele>2005.2</ele>
        <time>2015-06-28T05:10:49Z</time>
      </trkpt>
      <trkpt lat="42.33364" lon="8.87557">
        <ele>2004.6</ele>
        <time>2015-06-28T05:10:53Z</time>
      </trkpt>
      <trkpt lat="42.3336" lon="8.87558">
        <ele>2002.8</ele>
        <time>2015-06-28T05:10:59Z</time>
      </trkpt>
      <trkpt lat="42.33358" lon="8.87564">
        <ele>2001.4</ele>
        <time>2015-06-28T05:11:06Z</time>
      </trkpt>
      <trkpt lat="42.33356" lon="8.8757">
        <ele>2000.6</ele>
        <time>2015-06-28T05:11:11Z</time>
      </trkpt>
      <trkpt lat="42.33356" lon="8.87572">
        <ele>2000.6</ele>
        <time>2015-06-28T05:11:12Z</time>
      </trkpt>
      <trkpt lat="42.33353" lon="8.87572">
        <ele>1999.6</ele>
        <time>2015-06-28T05:11:17Z</time>
      </trkpt>
      <trkpt lat="42.33351" lon="8.87575">
        <ele>1998.8</ele>
        <time>2015-06-28T05:11:21Z</time>
      </trkpt>
      <trkpt lat="42.33348" lon="8.87581">
        <ele>1997.2</ele>
        <time>2015-06-28T05:11:28Z</time>
      </trkpt>
      <trkpt lat="42.33346" lon="8.87585">
        <ele>1996.4</ele>
        <time>2015-06-28T05:11:33Z</time>
      </trkpt>
      <trkpt lat="42.33345" lon="8.87588">
        <ele>1995.6</ele>
        <time>2015-06-28T05:11:36Z</time>
      </trkpt>
      <trkpt lat="42.33342" lon="8.8759">
        <ele>1994</ele>
        <time>2015-06-28T05:11:42Z</time>
      </trkpt>
      <trkpt lat="42.33339" lon="8.87592">
        <ele>1992.8</ele>
        <time>2015-06-28T05:11:48Z</time>
      </trkpt>
      <trkpt lat="42.33336" lon="8.87596">
        <ele>1991.8</ele>
        <time>2015-06-28T05:11:53Z</time>
      </trkpt>
      <trkpt lat="42.33333" lon="8.876">
        <ele>1990.4</ele>
        <time>2015-06-28T05:12:00Z</time>
      </trkpt>
      <trkpt lat="42.3333" lon="8.87605">
        <ele>1989.6</ele>
        <time>2015-06-28T05:12:05Z</time>
      </trkpt>
      <trkpt lat="42.33327" lon="8.87608">
        <ele>1988.8</ele>
        <time>2015-06-28T05:12:09Z</time>
      </trkpt>
      <trkpt lat="42.33323" lon="8.87613">
        <ele>1986.8</ele>
        <time>2015-06-28T05:12:16Z</time>
      </trkpt>
      <trkpt lat="42.3332" lon="8.87616">
        <ele>1986.2</ele>
        <time>2015-06-28T05:12:21Z</time>
      </trkpt>
      <trkpt lat="42.33316" lon="8.8762">
        <ele>1984.6</ele>
        <time>2015-06-28T05:12:28Z</time>
      </trkpt>
      <trkpt lat="42.33313" lon="8.87628">
        <ele>1983.4</ele>
        <time>2015-06-28T05:12:36Z</time>
      </trkpt>
      <trkpt lat="42.3331" lon="8.87635">
        <ele>1982.8</ele>
        <time>2015-06-28T05:12:42Z</time>
      </trkpt>
      <trkpt lat="42.33309" lon="8.87636">
        <ele>1982.4</ele>
        <time>2015-06-28T05:12:43Z</time>
      </trkpt>
      <trkpt lat="42.33305" lon="8.87645">
        <ele>1981</ele>
        <time>2015-06-28T05:12:53Z</time>
      </trkpt>
      <trkpt lat="42.33302" lon="8.87646">
        <ele>1980.6</ele>
        <time>2015-06-28T05:12:56Z</time>
      </trkpt>
      <trkpt lat="42.33298" lon="8.87642">
        <ele>1979.8</ele>
        <time>2015-06-28T05:13:03Z</time>
      </trkpt>
      <trkpt lat="42.33293" lon="8.87641">
        <ele>1979.4</ele>
        <time>2015-06-28T05:13:09Z</time>
      </trkpt>
      <trkpt lat="42.33289" lon="8.87643">
        <ele>1978.8</ele>
        <time>2015-06-28T05:13:13Z</time>
      </trkpt>
      <trkpt lat="42.33284" lon="8.87644">
        <ele>1977</ele>
        <time>2015-06-28T05:13:20Z</time>
      </trkpt>
      <trkpt lat="42.33284" lon="8.87645">
        <ele>1977</ele>
        <time>2015-06-28T05:13:21Z</time>
      </trkpt>
      <trkpt lat="42.33282" lon="8.87647">
        <ele>1976.4</ele>
        <time>2015-06-28T05:13:24Z</time>
      </trkpt>
      <trkpt lat="42.33278" lon="8.87648">
        <ele>1974.8</ele>
        <time>2015-06-28T05:13:30Z</time>
      </trkpt>
      <trkpt lat="42.33272" lon="8.87648">
        <ele>1973.8</ele>
        <time>2015-06-28T05:13:37Z</time>
      </trkpt>
      <trkpt lat="42.33268" lon="8.8765">
        <ele>1973</ele>
        <time>2015-06-28T05:13:42Z</time>
      </trkpt>
      <trkpt lat="42.33267" lon="8.87653">
        <ele>1972.6</ele>
        <time>2015-06-28T05:13:44Z</time>
      </trkpt>
      <trkpt lat="42.33266" lon="8.87656">
        <ele>1972</ele>
        <time>2015-06-28T05:13:47Z</time>
      </trkpt>
      <trkpt lat="42.33256" lon="8.87659">
        <ele>1970</ele>
        <time>2015-06-28T05:13:59Z</time>
      </trkpt>
      <trkpt lat="42.33256" lon="8.87662">
        <ele>1969.6</ele>
        <time>2015-06-28T05:14:03Z</time>
      </trkpt>
      <trkpt lat="42.33255" lon="8.87667">
        <ele>1968.2</ele>
        <time>2015-06-28T05:14:08Z</time>
      </trkpt>
      <trkpt lat="42.33253" lon="8.87673">
        <ele>1966.6</ele>
        <time>2015-06-28T05:14:17Z</time>
      </trkpt>
      <trkpt lat="42.33255" lon="8.87677">
        <ele>1966</ele>
        <time>2015-06-28T05:14:24Z</time>
      </trkpt>
      <trkpt lat="42.33259" lon="8.87681">
        <ele>1964.6</ele>
        <time>2015-06-28T05:14:32Z</time>
      </trkpt>
      <trkpt lat="42.33263" lon="8.87684">
        <ele>1963.2</ele>
        <time>2015-06-28T05:14:42Z</time>
      </trkpt>
      <trkpt lat="42.33265" lon="8.87686">
        <ele>1962.8</ele>
        <time>2015-06-28T05:14:49Z</time>
      </trkpt>
      <trkpt lat="42.33267" lon="8.87685">
        <ele>1961.4</ele>
        <time>2015-06-28T05:14:56Z</time>
      </trkpt>
      <trkpt lat="42.33269" lon="8.87687">
        <ele>1960.4</ele>
        <time>2015-06-28T05:15:05Z</time>
      </trkpt>
      <trkpt lat="42.33272" lon="8.87689">
        <ele>1960</ele>
        <time>2015-06-28T05:15:09Z</time>
      </trkpt>
      <trkpt lat="42.33275" lon="8.87696">
        <ele>1958.4</ele>
        <time>2015-06-28T05:15:16Z</time>
      </trkpt>
      <trkpt lat="42.33279" lon="8.87702">
        <ele>1957</ele>
        <time>2015-06-28T05:15:24Z</time>
      </trkpt>
      <trkpt lat="42.33279" lon="8.87706">
        <ele>1956</ele>
        <time>2015-06-28T05:15:33Z</time>
      </trkpt>
      <trkpt lat="42.33279" lon="8.87707">
        <ele>1955.4</ele>
        <time>2015-06-28T05:15:39Z</time>
      </trkpt>
      <trkpt lat="42.3328" lon="8.87709">
        <ele>1953.8</ele>
        <time>2015-06-28T05:15:47Z</time>
      </trkpt>
      <trkpt lat="42.33282" lon="8.87712">
        <ele>1952.6</ele>
        <time>2015-06-28T05:16:01Z</time>
      </trkpt>
      <trkpt lat="42.3328" lon="8.87716">
        <ele>1952</ele>
        <time>2015-06-28T05:16:20Z</time>
      </trkpt>
      <trkpt lat="42.3328" lon="8.87719">
        <ele>1950.4</ele>
        <time>2015-06-28T05:16:28Z</time>
      </trkpt>
      <trkpt lat="42.33281" lon="8.87722">
        <ele>1949</ele>
        <time>2015-06-28T05:16:41Z</time>
      </trkpt>
      <trkpt lat="42.33284" lon="8.87726">
        <ele>1948</ele>
        <time>2015-06-28T05:17:01Z</time>
      </trkpt>
      <trkpt lat="42.33285" lon="8.87729">
        <ele>1947.2</ele>
        <time>2015-06-28T05:17:08Z</time>
      </trkpt>
      <trkpt lat="42.33287" lon="8.87732">
        <ele>1946.2</ele>
        <time>2015-06-28T05:17:18Z</time>
      </trkpt>
      <trkpt lat="42.33288" lon="8.87734">
        <ele>1944.8</ele>
        <time>2015-06-28T05:17:27Z</time>
      </trkpt>
      <trkpt lat="42.3329" lon="8.8774">
        <ele>1943.6</ele>
        <time>2015-06-28T05:17:44Z</time>
      </trkpt>
      <trkpt lat="42.3329" lon="8.87745">
        <ele>1942.6</ele>
        <time>2015-06-28T05:17:53Z</time>
      </trkpt>
      <trkpt lat="42.3329" lon="8.87748">
        <ele>1942</ele>
        <time>2015-06-28T05:17:59Z</time>
      </trkpt>
      <trkpt lat="42.33297" lon="8.87759">
        <ele>1940.2</ele>
        <time>2015-06-28T05:18:47Z</time>
      </trkpt>
      <trkpt lat="42.33298" lon="8.87764">
        <ele>1938.8</ele>
        <time>2015-06-28T05:19:09Z</time>
      </trkpt>
      <trkpt lat="42.33299" lon="8.87767">
        <ele>1938</ele>
        <time>2015-06-28T05:19:16Z</time>
      </trkpt>
      <trkpt lat="42.33297" lon="8.87774">
        <ele>1936.4</ele>
        <time>2015-06-28T05:19:29Z</time>
      </trkpt>
      <trkpt lat="42.33296" lon="8.87773">
        <ele>1935.8</ele>
        <time>2015-06-28T05:19:35Z</time>
      </trkpt>
      <trkpt lat="42.33292" lon="8.87773">
        <ele>1934.6</ele>
        <time>2015-06-28T05:19:41Z</time>
      </trkpt>
      <trkpt lat="42.33293" lon="8.87775">
        <ele>1933.4</ele>
        <time>2015-06-28T05:19:47Z</time>
      </trkpt>
      <trkpt lat="42.33297" lon="8.87778">
        <ele>1932</ele>
        <time>2015-06-28T05:19:54Z</time>
      </trkpt>
      <trkpt lat="42.33299" lon="8.87781">
        <ele>1931.2</ele>
        <time>2015-06-28T05:20:00Z</time>
      </trkpt>
      <trkpt lat="42.333" lon="8.87783">
        <ele>1930.8</ele>
        <time>2015-06-28T05:20:02Z</time>
      </trkpt>
      <trkpt lat="42.33302" lon="8.87785">
        <ele>1930</ele>
        <time>2015-06-28T05:20:06Z</time>
      </trkpt>
      <trkpt lat="42.33305" lon="8.87788">
        <ele>1928.8</ele>
        <time>2015-06-28T05:20:12Z</time>
      </trkpt>
      <trkpt lat="42.33307" lon="8.87793">
        <ele>1927.6</ele>
        <time>2015-06-28T05:20:20Z</time>
      </trkpt>
      <trkpt lat="42.33313" lon="8.87797">
        <ele>1926.2</ele>
        <time>2015-06-28T05:20:28Z</time>
      </trkpt>
      <trkpt lat="42.33317" lon="8.87798">
        <ele>1926</ele>
        <time>2015-06-28T05:20:33Z</time>
      </trkpt>
      <trkpt lat="42.33323" lon="8.87807">
        <ele>1924.4</ele>
        <time>2015-06-28T05:20:56Z</time>
      </trkpt>
      <trkpt lat="42.33327" lon="8.8781">
        <ele>1924.2</ele>
        <time>2015-06-28T05:21:07Z</time>
      </trkpt>
      <trkpt lat="42.3333" lon="8.8781">
        <ele>1922.6</ele>
        <time>2015-06-28T05:21:18Z</time>
      </trkpt>
      <trkpt lat="42.33331" lon="8.87812">
        <ele>1922</ele>
        <time>2015-06-28T05:21:26Z</time>
      </trkpt>
      <trkpt lat="42.33331" lon="8.87816">
        <ele>1920.4</ele>
        <time>2015-06-28T05:21:36Z</time>
      </trkpt>
      <trkpt lat="42.33333" lon="8.87815">
        <ele>1919</ele>
        <time>2015-06-28T05:21:47Z</time>
      </trkpt>
      <trkpt lat="42.33335" lon="8.87814">
        <ele>1918.2</ele>
        <time>2015-06-28T05:21:58Z</time>
      </trkpt>
      <trkpt lat="42.33338" lon="8.87812">
        <ele>1917.2</ele>
        <time>2015-06-28T05:22:08Z</time>
      </trkpt>
      <trkpt lat="42.33341" lon="8.87814">
        <ele>1916.2</ele>
        <time>2015-06-28T05:22:19Z</time>
      </trkpt>
      <trkpt lat="42.33343" lon="8.87816">
        <ele>1915</ele>
        <time>2015-06-28T05:22:27Z</time>
      </trkpt>
      <trkpt lat="42.33346" lon="8.87817">
        <ele>1914.4</ele>
        <time>2015-06-28T05:22:32Z</time>
      </trkpt>
      <trkpt lat="42.33355" lon="8.8782">
        <ele>1912.6</ele>
        <time>2015-06-28T05:22:45Z</time>
      </trkpt>
      <trkpt lat="42.33357" lon="8.87824">
        <ele>1912</ele>
        <time>2015-06-28T05:22:53Z</time>
      </trkpt>
      <trkpt lat="42.33359" lon="8.8783">
        <ele>1910.2</ele>
        <time>2015-06-28T05:23:14Z</time>
      </trkpt>
      <trkpt lat="42.33357" lon="8.87831">
        <ele>1909.4</ele>
        <time>2015-06-28T05:23:21Z</time>
      </trkpt>
      <trkpt lat="42.33357" lon="8.87834">
        <ele>1908.2</ele>
        <time>2015-06-28T05:23:30Z</time>
      </trkpt>
      <trkpt lat="42.33359" lon="8.87838">
        <ele>1907</ele>
        <time>2015-06-28T05:23:38Z</time>
      </trkpt>
      <trkpt lat="42.3336" lon="8.87841">
        <ele>1906.4</ele>
        <time>2015-06-28T05:23:43Z</time>
      </trkpt>
      <trkpt lat="42.33362" lon="8.87847">
        <ele>1904.6</ele>
        <time>2015-06-28T05:23:53Z</time>
      </trkpt>
      <trkpt lat="42.33366" lon="8.87849">
        <ele>1904</ele>
        <time>2015-06-28T05:23:59Z</time>
      </trkpt>
      <trkpt lat="42.3337" lon="8.87853">
        <ele>1902.6</ele>
        <time>2015-06-28T05:24:06Z</time>
      </trkpt>
      <trkpt lat="42.33379" lon="8.87863">
        <ele>1901.2</ele>
        <time>2015-06-28T05:24:31Z</time>
      </trkpt>
      <trkpt lat="42.33402" lon="8.87882">
        <ele>1900</ele>
        <time>2015-06-28T05:25:24Z</time>
      </trkpt>
      <trkpt lat="42.33402" lon="8.87885">
        <ele>1899.4</ele>
        <time>2015-06-28T05:25:33Z</time>
      </trkpt>
      <trkpt lat="42.33404" lon="8.8789">
        <ele>1898.4</ele>
        <time>2015-06-28T05:25:40Z</time>
      </trkpt>
      <trkpt lat="42.33405" lon="8.87895">
        <ele>1897.2</ele>
        <time>2015-06-28T05:25:48Z</time>
      </trkpt>
      <trkpt lat="42.33407" lon="8.87897">
        <ele>1896</ele>
        <time>2015-06-28T05:25:56Z</time>
      </trkpt>
      <trkpt lat="42.33407" lon="8.87901">
        <ele>1894.8</ele>
        <time>2015-06-28T05:26:14Z</time>
      </trkpt>
      <trkpt lat="42.33406" lon="8.87903">
        <ele>1894.4</ele>
        <time>2015-06-28T05:26:19Z</time>
      </trkpt>
      <trkpt lat="42.33407" lon="8.87906">
        <ele>1893</ele>
        <time>2015-06-28T05:26:27Z</time>
      </trkpt>
      <trkpt lat="42.33408" lon="8.87908">
        <ele>1891.8</ele>
        <time>2015-06-28T05:26:35Z</time>
      </trkpt>
      <trkpt lat="42.3341" lon="8.87909">
        <ele>1891.2</ele>
        <time>2015-06-28T05:26:41Z</time>
      </trkpt>
      <trkpt lat="42.33409" lon="8.87913">
        <ele>1889.2</ele>
        <time>2015-06-28T05:26:56Z</time>
      </trkpt>
      <trkpt lat="42.33408" lon="8.87915">
        <ele>1888.8</ele>
        <time>2015-06-28T05:27:16Z</time>
      </trkpt>
      <trkpt lat="42.33408" lon="8.87917">
        <ele>1887.6</ele>
        <time>2015-06-28T05:27:24Z</time>
      </trkpt>
      <trkpt lat="42.33411" lon="8.87919">
        <ele>1886.2</ele>
        <time>2015-06-28T05:27:34Z</time>
      </trkpt>
      <trkpt lat="42.33411" lon="8.87922">
        <ele>1885</ele>
        <time>2015-06-28T05:27:44Z</time>
      </trkpt>
      <trkpt lat="42.33412" lon="8.87923">
        <ele>1884.6</ele>
        <time>2015-06-28T05:27:50Z</time>
      </trkpt>
      <trkpt lat="42.33413" lon="8.87927">
        <ele>1883.2</ele>
        <time>2015-06-28T05:28:16Z</time>
      </trkpt>
      <trkpt lat="42.33415" lon="8.87928">
        <ele>1881.6</ele>
        <time>2015-06-28T05:28:28Z</time>
      </trkpt>
      <trkpt lat="42.33425" lon="8.8793">
        <ele>1880.4</ele>
        <time>2015-06-28T05:28:53Z</time>
      </trkpt>
      <trkpt lat="42.33425" lon="8.87933">
        <ele>1879.8</ele>
        <time>2015-06-28T05:29:00Z</time>
      </trkpt>
      <trkpt lat="42.33425" lon="8.87937">
        <ele>1878.8</ele>
        <time>2015-06-28T05:29:07Z</time>
      </trkpt>
      <trkpt lat="42.33426" lon="8.87939">
        <ele>1877.6</ele>
        <time>2015-06-28T05:29:13Z</time>
      </trkpt>
      <trkpt lat="42.33427" lon="8.87942">
        <ele>1876.2</ele>
        <time>2015-06-28T05:29:22Z</time>
      </trkpt>
      <trkpt lat="42.33428" lon="8.87948">
        <ele>1875</ele>
        <time>2015-06-28T05:29:31Z</time>
      </trkpt>
      <trkpt lat="42.33429" lon="8.87952">
        <ele>1874.2</ele>
        <time>2015-06-28T05:29:37Z</time>
      </trkpt>
      <trkpt lat="42.33431" lon="8.87956">
        <ele>1873.2</ele>
        <time>2015-06-28T05:29:42Z</time>
      </trkpt>
      <trkpt lat="42.33433" lon="8.87961">
        <ele>1871.4</ele>
        <time>2015-06-28T05:29:50Z</time>
      </trkpt>
      <trkpt lat="42.33435" lon="8.87966">
        <ele>1871</ele>
        <time>2015-06-28T05:29:55Z</time>
      </trkpt>
      <trkpt lat="42.33428" lon="8.87963">
        <ele>1869.2</ele>
        <time>2015-06-28T05:30:21Z</time>
      </trkpt>
      <trkpt lat="42.33423" lon="8.87965">
        <ele>1868</ele>
        <time>2015-06-28T05:30:28Z</time>
      </trkpt>
      <trkpt lat="42.33422" lon="8.87965">
        <ele>1867.6</ele>
        <time>2015-06-28T05:30:29Z</time>
      </trkpt>
      <trkpt lat="42.33416" lon="8.87966">
        <ele>1866.6</ele>
        <time>2015-06-28T05:30:39Z</time>
      </trkpt>
      <trkpt lat="42.33411" lon="8.87967">
        <ele>1865.4</ele>
        <time>2015-06-28T05:30:48Z</time>
      </trkpt>
      <trkpt lat="42.33406" lon="8.8797">
        <ele>1864.2</ele>
        <time>2015-06-28T05:30:56Z</time>
      </trkpt>
      <trkpt lat="42.33403" lon="8.87976">
        <ele>1863.2</ele>
        <time>2015-06-28T05:31:05Z</time>
      </trkpt>
      <trkpt lat="42.33404" lon="8.87979">
        <ele>1862.6</ele>
        <time>2015-06-28T05:31:10Z</time>
      </trkpt>
      <trkpt lat="42.33406" lon="8.87982">
        <ele>1861.4</ele>
        <time>2015-06-28T05:31:15Z</time>
      </trkpt>
      <trkpt lat="42.33408" lon="8.87987">
        <ele>1859.4</ele>
        <time>2015-06-28T05:31:25Z</time>
      </trkpt>
      <trkpt lat="42.33405" lon="8.87987">
        <ele>1858.6</ele>
        <time>2015-06-28T05:31:32Z</time>
      </trkpt>
      <trkpt lat="42.33402" lon="8.87988">
        <ele>1857.6</ele>
        <time>2015-06-28T05:31:39Z</time>
      </trkpt>
      <trkpt lat="42.33398" lon="8.87991">
        <ele>1856.6</ele>
        <time>2015-06-28T05:31:46Z</time>
      </trkpt>
      <trkpt lat="42.33394" lon="8.87992">
        <ele>1855.2</ele>
        <time>2015-06-28T05:31:53Z</time>
      </trkpt>
      <trkpt lat="42.33389" lon="8.87995">
        <ele>1853.8</ele>
        <time>2015-06-28T05:32:01Z</time>
      </trkpt>
      <trkpt lat="42.33386" lon="8.88002">
        <ele>1852.8</ele>
        <time>2015-06-28T05:32:11Z</time>
      </trkpt>
      <trkpt lat="42.33388" lon="8.88006">
        <ele>1852</ele>
        <time>2015-06-28T05:32:18Z</time>
      </trkpt>
      <trkpt lat="42.33389" lon="8.8801">
        <ele>1850</ele>
        <time>2015-06-28T05:32:34Z</time>
      </trkpt>
      <trkpt lat="42.33392" lon="8.88012">
        <ele>1849.6</ele>
        <time>2015-06-28T05:32:41Z</time>
      </trkpt>
      <trkpt lat="42.33389" lon="8.88016">
        <ele>1848.2</ele>
        <time>2015-06-28T05:32:49Z</time>
      </trkpt>
      <trkpt lat="42.3339" lon="8.88016">
        <ele>1848.2</ele>
        <time>2015-06-28T05:32:50Z</time>
      </trkpt>
      <trkpt lat="42.3339" lon="8.88017">
        <ele>1847.8</ele>
        <time>2015-06-28T05:32:53Z</time>
      </trkpt>
      <trkpt lat="42.3339" lon="8.88018">
        <ele>1845.6</ele>
        <time>2015-06-28T05:33:11Z</time>
      </trkpt>
      <trkpt lat="42.33393" lon="8.88026">
        <ele>1844.6</ele>
        <time>2015-06-28T05:33:40Z</time>
      </trkpt>
      <trkpt lat="42.33395" lon="8.88029">
        <ele>1844</ele>
        <time>2015-06-28T05:33:51Z</time>
      </trkpt>
      <trkpt lat="42.33398" lon="8.88029">
        <ele>1843.2</ele>
        <time>2015-06-28T05:33:55Z</time>
      </trkpt>
      <trkpt lat="42.33404" lon="8.88034">
        <ele>1841.4</ele>
        <time>2015-06-28T05:34:08Z</time>
      </trkpt>
      <trkpt lat="42.33411" lon="8.88042">
        <ele>1840.2</ele>
        <time>2015-06-28T05:34:34Z</time>
      </trkpt>
      <trkpt lat="42.33407" lon="8.88045">
        <ele>1839</ele>
        <time>2015-06-28T05:35:02Z</time>
      </trkpt>
      <trkpt lat="42.33406" lon="8.88048">
        <ele>1838.2</ele>
        <time>2015-06-28T05:35:10Z</time>
      </trkpt>
      <trkpt lat="42.33405" lon="8.88053">
        <ele>1836.6</ele>
        <time>2015-06-28T05:35:24Z</time>
      </trkpt>
      <trkpt lat="42.33402" lon="8.88055">
        <ele>1835.8</ele>
        <time>2015-06-28T05:35:33Z</time>
      </trkpt>
      <trkpt lat="42.33401" lon="8.88058">
        <ele>1835.2</ele>
        <time>2015-06-28T05:35:39Z</time>
      </trkpt>
      <trkpt lat="42.33401" lon="8.8806">
        <ele>1834</ele>
        <time>2015-06-28T05:35:46Z</time>
      </trkpt>
      <trkpt lat="42.33402" lon="8.88061">
        <ele>1833.4</ele>
        <time>2015-06-28T05:35:51Z</time>
      </trkpt>
      <trkpt lat="42.33403" lon="8.88063">
        <ele>1832</ele>
        <time>2015-06-28T05:35:57Z</time>
      </trkpt>
      <trkpt lat="42.33404" lon="8.88066">
        <ele>1831.2</ele>
        <time>2015-06-28T05:36:02Z</time>
      </trkpt>
      <trkpt lat="42.33403" lon="8.8807">
        <ele>1829.6</ele>
        <time>2015-06-28T05:36:11Z</time>
      </trkpt>
      <trkpt lat="42.33403" lon="8.88073">
        <ele>1828.8</ele>
        <time>2015-06-28T05:36:17Z</time>
      </trkpt>
      <trkpt lat="42.33402" lon="8.88077">
        <ele>1827.2</ele>
        <time>2015-06-28T05:36:24Z</time>
      </trkpt>
      <trkpt lat="42.33402" lon="8.8808">
        <ele>1826.2</ele>
        <time>2015-06-28T05:36:32Z</time>
      </trkpt>
      <trkpt lat="42.334" lon="8.88083">
        <ele>1825.2</ele>
        <time>2015-06-28T05:36:40Z</time>
      </trkpt>
      <trkpt lat="42.33401" lon="8.88086">
        <ele>1823.6</ele>
        <time>2015-06-28T05:36:51Z</time>
      </trkpt>
      <trkpt lat="42.33401" lon="8.88089">
        <ele>1822.6</ele>
        <time>2015-06-28T05:37:03Z</time>
      </trkpt>
      <trkpt lat="42.33405" lon="8.8809">
        <ele>1821.6</ele>
        <time>2015-06-28T05:37:14Z</time>
      </trkpt>
      <trkpt lat="42.33405" lon="8.88091">
        <ele>1821.2</ele>
        <time>2015-06-28T05:37:16Z</time>
      </trkpt>
      <trkpt lat="42.33404" lon="8.88094">
        <ele>1820</ele>
        <time>2015-06-28T05:37:32Z</time>
      </trkpt>
      <trkpt lat="42.33403" lon="8.88097">
        <ele>1819.2</ele>
        <time>2015-06-28T05:37:46Z</time>
      </trkpt>
      <trkpt lat="42.33403" lon="8.88099">
        <ele>1818</ele>
        <time>2015-06-28T05:38:14Z</time>
      </trkpt>
      <trkpt lat="42.33404" lon="8.88099">
        <ele>1817.4</ele>
        <time>2015-06-28T05:38:21Z</time>
      </trkpt>
      <trkpt lat="42.33406" lon="8.881">
        <ele>1816</ele>
        <time>2015-06-28T05:38:29Z</time>
      </trkpt>
      <trkpt lat="42.33407" lon="8.88101">
        <ele>1815</ele>
        <time>2015-06-28T05:38:39Z</time>
      </trkpt>
      <trkpt lat="42.33406" lon="8.88101">
        <ele>1813.2</ele>
        <time>2015-06-28T05:39:20Z</time>
      </trkpt>
      <trkpt lat="42.33405" lon="8.88097">
        <ele>1812.6</ele>
        <time>2015-06-28T05:40:04Z</time>
      </trkpt>
      <trkpt lat="42.33407" lon="8.88108">
        <ele>1811.6</ele>
        <time>2015-06-28T05:40:18Z</time>
      </trkpt>
      <trkpt lat="42.33408" lon="8.88105">
        <ele>1810.6</ele>
        <time>2015-06-28T05:40:24Z</time>
      </trkpt>
      <trkpt lat="42.33405" lon="8.88105">
        <ele>1809</ele>
        <time>2015-06-28T05:40:38Z</time>
      </trkpt>
      <trkpt lat="42.33402" lon="8.88111">
        <ele>1808</ele>
        <time>2015-06-28T05:40:49Z</time>
      </trkpt>
      <trkpt lat="42.334" lon="8.88114">
        <ele>1807</ele>
        <time>2015-06-28T05:40:56Z</time>
      </trkpt>
      <trkpt lat="42.33398" lon="8.88116">
        <ele>1805.6</ele>
        <time>2015-06-28T05:41:05Z</time>
      </trkpt>
      <trkpt lat="42.33398" lon="8.88118">
        <ele>1803.8</ele>
        <time>2015-06-28T05:41:25Z</time>
      </trkpt>
      <trkpt lat="42.33398" lon="8.88122">
        <ele>1803</ele>
        <time>2015-06-28T05:41:35Z</time>
      </trkpt>
      <trkpt lat="42.33399" lon="8.88127">
        <ele>1801.8</ele>
        <time>2015-06-28T05:41:47Z</time>
      </trkpt>
      <trkpt lat="42.33398" lon="8.88126">
        <ele>1801.6</ele>
        <time>2015-06-28T05:41:51Z</time>
      </trkpt>
      <trkpt lat="42.33397" lon="8.88126">
        <ele>1800.2</ele>
        <time>2015-06-28T05:42:05Z</time>
      </trkpt>
      <trkpt lat="42.33395" lon="8.8813">
        <ele>1799</ele>
        <time>2015-06-28T05:42:30Z</time>
      </trkpt>
      <trkpt lat="42.33394" lon="8.88132">
        <ele>1798</ele>
        <time>2015-06-28T05:42:43Z</time>
      </trkpt>
      <trkpt lat="42.33393" lon="8.88135">
        <ele>1797</ele>
        <time>2015-06-28T05:42:54Z</time>
      </trkpt>
      <trkpt lat="42.33395" lon="8.88138">
        <ele>1796.6</ele>
        <time>2015-06-28T05:42:58Z</time>
      </trkpt>
      <trkpt lat="42.33396" lon="8.88137">
        <ele>1796.4</ele>
        <time>2015-06-28T05:43:01Z</time>
      </trkpt>
      <trkpt lat="42.334" lon="8.88141">
        <ele>1794.6</ele>
        <time>2015-06-28T05:43:09Z</time>
      </trkpt>
      <trkpt lat="42.33402" lon="8.88144">
        <ele>1793.2</ele>
        <time>2015-06-28T05:43:20Z</time>
      </trkpt>
      <trkpt lat="42.33402" lon="8.88147">
        <ele>1792.2</ele>
        <time>2015-06-28T05:43:29Z</time>
      </trkpt>
      <trkpt lat="42.33399" lon="8.8815">
        <ele>1790.8</ele>
        <time>2015-06-28T05:43:41Z</time>
      </trkpt>
      <trkpt lat="42.33401" lon="8.88155">
        <ele>1790</ele>
        <time>2015-06-28T05:43:48Z</time>
      </trkpt>
      <trkpt lat="42.33398" lon="8.88153">
        <ele>1788.2</ele>
        <time>2015-06-28T05:44:16Z</time>
      </trkpt>
      <trkpt lat="42.33396" lon="8.88157">
        <ele>1787.2</ele>
        <time>2015-06-28T05:44:35Z</time>
      </trkpt>
      <trkpt lat="42.33395" lon="8.8816">
        <ele>1786.6</ele>
        <time>2015-06-28T05:44:42Z</time>
      </trkpt>
      <trkpt lat="42.33396" lon="8.88161">
        <ele>1785.6</ele>
        <time>2015-06-28T05:44:48Z</time>
      </trkpt>
      <trkpt lat="42.33395" lon="8.88165">
        <ele>1784.2</ele>
        <time>2015-06-28T05:44:55Z</time>
      </trkpt>
      <trkpt lat="42.33394" lon="8.88169">
        <ele>1782.8</ele>
        <time>2015-06-28T05:45:03Z</time>
      </trkpt>
      <trkpt lat="42.33393" lon="8.88172">
        <ele>1781.8</ele>
        <time>2015-06-28T05:45:13Z</time>
      </trkpt>
      <trkpt lat="42.33391" lon="8.88168">
        <ele>1780</ele>
        <time>2015-06-28T05:45:29Z</time>
      </trkpt>
      <trkpt lat="42.33387" lon="8.88165">
        <ele>1778.6</ele>
        <time>2015-06-28T05:45:51Z</time>
      </trkpt>
      <trkpt lat="42.33387" lon="8.88169">
        <ele>1777.8</ele>
        <time>2015-06-28T05:46:03Z</time>
      </trkpt>
      <trkpt lat="42.33385" lon="8.88171">
        <ele>1776.6</ele>
        <time>2015-06-28T05:46:12Z</time>
      </trkpt>
      <trkpt lat="42.33384" lon="8.88171">
        <ele>1775.6</ele>
        <time>2015-06-28T05:46:22Z</time>
      </trkpt>
      <trkpt lat="42.33386" lon="8.88174">
        <ele>1775</ele>
        <time>2015-06-28T05:46:28Z</time>
      </trkpt>
      <trkpt lat="42.33386" lon="8.88178">
        <ele>1773.8</ele>
        <time>2015-06-28T05:46:33Z</time>
      </trkpt>
      <trkpt lat="42.33387" lon="8.88181">
        <ele>1772.4</ele>
        <time>2015-06-28T05:46:41Z</time>
      </trkpt>
      <trkpt lat="42.33385" lon="8.88181">
        <ele>1771</ele>
        <time>2015-06-28T05:46:55Z</time>
      </trkpt>
      <trkpt lat="42.33384" lon="8.88182">
        <ele>1770.6</ele>
        <time>2015-06-28T05:47:01Z</time>
      </trkpt>
      <trkpt lat="42.33382" lon="8.88184">
        <ele>1769.2</ele>
        <time>2015-06-28T05:47:09Z</time>
      </trkpt>
      <trkpt lat="42.33383" lon="8.88186">
        <ele>1768.4</ele>
        <time>2015-06-28T05:47:14Z</time>
      </trkpt>
      <trkpt lat="42.33386" lon="8.88188">
        <ele>1767.4</ele>
        <time>2015-06-28T05:47:19Z</time>
      </trkpt>
      <trkpt lat="42.33386" lon="8.88192">
        <ele>1766</ele>
        <time>2015-06-28T05:47:25Z</time>
      </trkpt>
      <trkpt lat="42.33387" lon="8.88196">
        <ele>1765</ele>
        <time>2015-06-28T05:47:30Z</time>
      </trkpt>
      <trkpt lat="42.33387" lon="8.88198">
        <ele>1763.2</ele>
        <time>2015-06-28T05:47:37Z</time>
      </trkpt>
      <trkpt lat="42.33389" lon="8.88203">
        <ele>1762.4</ele>
        <time>2015-06-28T05:47:44Z</time>
      </trkpt>
      <trkpt lat="42.33392" lon="8.88206">
        <ele>1761.4</ele>
        <time>2015-06-28T05:47:50Z</time>
      </trkpt>
      <trkpt lat="42.33394" lon="8.88208">
        <ele>1760.8</ele>
        <time>2015-06-28T05:48:00Z</time>
      </trkpt>
      <trkpt lat="42.33399" lon="8.88213">
        <ele>1761.8</ele>
        <time>2015-06-28T05:48:09Z</time>
      </trkpt>
      <trkpt lat="42.33403" lon="8.88217">
        <ele>1762.4</ele>
        <time>2015-06-28T05:48:19Z</time>
      </trkpt>
      <trkpt lat="42.33405" lon="8.88223">
        <ele>1763.2</ele>
        <time>2015-06-28T05:48:43Z</time>
      </trkpt>
      <trkpt lat="42.33404" lon="8.8823">
        <ele>1762.4</ele>
        <time>2015-06-28T05:48:52Z</time>
      </trkpt>
      <trkpt lat="42.33405" lon="8.88231">
        <ele>1762.2</ele>
        <time>2015-06-28T05:48:54Z</time>
      </trkpt>
      <trkpt lat="42.33406" lon="8.88232">
        <ele>1762</ele>
        <time>2015-06-28T05:48:56Z</time>
      </trkpt>
      <trkpt lat="42.33406" lon="8.88233">
        <ele>1761.6</ele>
        <time>2015-06-28T05:48:57Z</time>
      </trkpt>
      <trkpt lat="42.33409" lon="8.88233">
        <ele>1761.2</ele>
        <time>2015-06-28T05:49:13Z</time>
      </trkpt>
      <trkpt lat="42.33411" lon="8.88251">
        <ele>1760.6</ele>
        <time>2015-06-28T05:49:34Z</time>
      </trkpt>
      <trkpt lat="42.33415" lon="8.88258">
        <ele>1760.2</ele>
        <time>2015-06-28T05:49:43Z</time>
      </trkpt>
      <trkpt lat="42.33415" lon="8.8826">
        <ele>1759</ele>
        <time>2015-06-28T05:49:54Z</time>
      </trkpt>
      <trkpt lat="42.33415" lon="8.88262">
        <ele>1757.8</ele>
        <time>2015-06-28T05:50:03Z</time>
      </trkpt>
      <trkpt lat="42.33417" lon="8.88267">
        <ele>1757</ele>
        <time>2015-06-28T05:50:13Z</time>
      </trkpt>
      <trkpt lat="42.33418" lon="8.88268">
        <ele>1756.8</ele>
        <time>2015-06-28T05:50:14Z</time>
      </trkpt>
      <trkpt lat="42.33425" lon="8.88277">
        <ele>1755.6</ele>
        <time>2015-06-28T05:50:28Z</time>
      </trkpt>
      <trkpt lat="42.33425" lon="8.8828">
        <ele>1755.2</ele>
        <time>2015-06-28T05:50:33Z</time>
      </trkpt>
      <trkpt lat="42.33426" lon="8.88283">
        <ele>1754.2</ele>
        <time>2015-06-28T05:50:38Z</time>
      </trkpt>
      <trkpt lat="42.33428" lon="8.88285">
        <ele>1753</ele>
        <time>2015-06-28T05:50:44Z</time>
      </trkpt>
      <trkpt lat="42.3343" lon="8.88288">
        <ele>1752.2</ele>
        <time>2015-06-28T05:50:49Z</time>
      </trkpt>
      <trkpt lat="42.33429" lon="8.88291">
        <ele>1750.8</ele>
        <time>2015-06-28T05:50:55Z</time>
      </trkpt>
      <trkpt lat="42.3343" lon="8.88296">
        <ele>1749.4</ele>
        <time>2015-06-28T05:51:03Z</time>
      </trkpt>
      <trkpt lat="42.33429" lon="8.883">
        <ele>1748.4</ele>
        <time>2015-06-28T05:51:10Z</time>
      </trkpt>
      <trkpt lat="42.3343" lon="8.88301">
        <ele>1747.6</ele>
        <time>2015-06-28T05:51:17Z</time>
      </trkpt>
      <trkpt lat="42.33431" lon="8.88303">
        <ele>1746.6</ele>
        <time>2015-06-28T05:51:23Z</time>
      </trkpt>
      <trkpt lat="42.33432" lon="8.88304">
        <ele>1745</ele>
        <time>2015-06-28T05:51:32Z</time>
      </trkpt>
      <trkpt lat="42.33432" lon="8.88309">
        <ele>1744.2</ele>
        <time>2015-06-28T05:51:40Z</time>
      </trkpt>
      <trkpt lat="42.33432" lon="8.88309">
        <ele>1743.4</ele>
        <time>2015-06-28T05:51:45Z</time>
      </trkpt>
      <trkpt lat="42.33435" lon="8.88308">
        <ele>1742.4</ele>
        <time>2015-06-28T05:51:50Z</time>
      </trkpt>
      <trkpt lat="42.33435" lon="8.88313">
        <ele>1740.8</ele>
        <time>2015-06-28T05:52:07Z</time>
      </trkpt>
      <trkpt lat="42.33435" lon="8.88316">
        <ele>1740</ele>
        <time>2015-06-28T05:52:18Z</time>
      </trkpt>
      <trkpt lat="42.33435" lon="8.88322">
        <ele>1738.8</ele>
        <time>2015-06-28T05:52:27Z</time>
      </trkpt>
      <trkpt lat="42.33434" lon="8.88329">
        <ele>1737.8</ele>
        <time>2015-06-28T05:52:38Z</time>
      </trkpt>
      <trkpt lat="42.33435" lon="8.88334">
        <ele>1737</ele>
        <time>2015-06-28T05:52:45Z</time>
      </trkpt>
      <trkpt lat="42.33434" lon="8.88337">
        <ele>1736</ele>
        <time>2015-06-28T05:52:51Z</time>
      </trkpt>
      <trkpt lat="42.33435" lon="8.88339">
        <ele>1735</ele>
        <time>2015-06-28T05:52:57Z</time>
      </trkpt>
      <trkpt lat="42.33436" lon="8.88343">
        <ele>1733.8</ele>
        <time>2015-06-28T05:53:03Z</time>
      </trkpt>
      <trkpt lat="42.33438" lon="8.88347">
        <ele>1732.8</ele>
        <time>2015-06-28T05:53:10Z</time>
      </trkpt>
      <trkpt lat="42.3344" lon="8.88352">
        <ele>1731.6</ele>
        <time>2015-06-28T05:53:16Z</time>
      </trkpt>
      <trkpt lat="42.33441" lon="8.88358">
        <ele>1730.8</ele>
        <time>2015-06-28T05:53:22Z</time>
      </trkpt>
      <trkpt lat="42.33443" lon="8.88361">
        <ele>1730.2</ele>
        <time>2015-06-28T05:53:26Z</time>
      </trkpt>
      <trkpt lat="42.33444" lon="8.88368">
        <ele>1729.4</ele>
        <time>2015-06-28T05:53:38Z</time>
      </trkpt>
      <trkpt lat="42.33447" lon="8.88372">
        <ele>1728.8</ele>
        <time>2015-06-28T05:53:44Z</time>
      </trkpt>
      <trkpt lat="42.33446" lon="8.88377">
        <ele>1727.4</ele>
        <time>2015-06-28T05:53:52Z</time>
      </trkpt>
      <trkpt lat="42.33447" lon="8.8838">
        <ele>1726.4</ele>
        <time>2015-06-28T05:53:58Z</time>
      </trkpt>
      <trkpt lat="42.33446" lon="8.88386">
        <ele>1724.4</ele>
        <time>2015-06-28T05:54:09Z</time>
      </trkpt>
      <trkpt lat="42.3345" lon="8.88393">
        <ele>1723.8</ele>
        <time>2015-06-28T05:54:17Z</time>
      </trkpt>
      <trkpt lat="42.33451" lon="8.88398">
        <ele>1723.4</ele>
        <time>2015-06-28T05:54:22Z</time>
      </trkpt>
      <trkpt lat="42.33452" lon="8.88401">
        <ele>1722.2</ele>
        <time>2015-06-28T05:54:27Z</time>
      </trkpt>
      <trkpt lat="42.33453" lon="8.88406">
        <ele>1721.4</ele>
        <time>2015-06-28T05:54:32Z</time>
      </trkpt>
      <trkpt lat="42.33454" lon="8.8841">
        <ele>1720</ele>
        <time>2015-06-28T05:54:38Z</time>
      </trkpt>
      <trkpt lat="42.33456" lon="8.88415">
        <ele>1718.4</ele>
        <time>2015-06-28T05:54:48Z</time>
      </trkpt>
      <trkpt lat="42.33455" lon="8.88421">
        <ele>1717.8</ele>
        <time>2015-06-28T05:54:55Z</time>
      </trkpt>
      <trkpt lat="42.33456" lon="8.88425">
        <ele>1716.8</ele>
        <time>2015-06-28T05:55:01Z</time>
      </trkpt>
      <trkpt lat="42.33457" lon="8.88431">
        <ele>1715.6</ele>
        <time>2015-06-28T05:55:09Z</time>
      </trkpt>
      <trkpt lat="42.33458" lon="8.88437">
        <ele>1714.8</ele>
        <time>2015-06-28T05:55:16Z</time>
      </trkpt>
      <trkpt lat="42.33458" lon="8.88439">
        <ele>1714.2</ele>
        <time>2015-06-28T05:55:21Z</time>
      </trkpt>
      <trkpt lat="42.33458" lon="8.88441">
        <ele>1713.6</ele>
        <time>2015-06-28T05:55:24Z</time>
      </trkpt>
      <trkpt lat="42.33457" lon="8.88445">
        <ele>1712.8</ele>
        <time>2015-06-28T05:55:29Z</time>
      </trkpt>
      <trkpt lat="42.33459" lon="8.88448">
        <ele>1711.4</ele>
        <time>2015-06-28T05:55:36Z</time>
      </trkpt>
      <trkpt lat="42.33461" lon="8.88452">
        <ele>1710.8</ele>
        <time>2015-06-28T05:55:41Z</time>
      </trkpt>
      <trkpt lat="42.33462" lon="8.88457">
        <ele>1709.4</ele>
        <time>2015-06-28T05:55:47Z</time>
      </trkpt>
      <trkpt lat="42.33463" lon="8.88461">
        <ele>1708.8</ele>
        <time>2015-06-28T05:55:52Z</time>
      </trkpt>
      <trkpt lat="42.33465" lon="8.88464">
        <ele>1707.2</ele>
        <time>2015-06-28T05:55:58Z</time>
      </trkpt>
      <trkpt lat="42.33466" lon="8.88468">
        <ele>1706.2</ele>
        <time>2015-06-28T05:56:04Z</time>
      </trkpt>
      <trkpt lat="42.33467" lon="8.88472">
        <ele>1705.2</ele>
        <time>2015-06-28T05:56:09Z</time>
      </trkpt>
      <trkpt lat="42.33469" lon="8.88475">
        <ele>1704.4</ele>
        <time>2015-06-28T05:56:14Z</time>
      </trkpt>
      <trkpt lat="42.3347" lon="8.88479">
        <ele>1703.2</ele>
        <time>2015-06-28T05:56:19Z</time>
      </trkpt>
      <trkpt lat="42.3347" lon="8.88485">
        <ele>1702</ele>
        <time>2015-06-28T05:56:25Z</time>
      </trkpt>
      <trkpt lat="42.3347" lon="8.88489">
        <ele>1701.2</ele>
        <time>2015-06-28T05:56:29Z</time>
      </trkpt>
      <trkpt lat="42.33472" lon="8.88494">
        <ele>1699.4</ele>
        <time>2015-06-28T05:56:36Z</time>
      </trkpt>
      <trkpt lat="42.33473" lon="8.88499">
        <ele>1698.4</ele>
        <time>2015-06-28T05:56:42Z</time>
      </trkpt>
      <trkpt lat="42.33476" lon="8.88503">
        <ele>1697.4</ele>
        <time>2015-06-28T05:56:47Z</time>
      </trkpt>
      <trkpt lat="42.33479" lon="8.88508">
        <ele>1696</ele>
        <time>2015-06-28T05:56:54Z</time>
      </trkpt>
      <trkpt lat="42.33478" lon="8.88514">
        <ele>1694.8</ele>
        <time>2015-06-28T05:57:02Z</time>
      </trkpt>
      <trkpt lat="42.33477" lon="8.8852">
        <ele>1693.8</ele>
        <time>2015-06-28T05:57:09Z</time>
      </trkpt>
      <trkpt lat="42.33476" lon="8.88525">
        <ele>1693</ele>
        <time>2015-06-28T05:57:15Z</time>
      </trkpt>
      <trkpt lat="42.33476" lon="8.88526">
        <ele>1691.8</ele>
        <time>2015-06-28T05:57:20Z</time>
      </trkpt>
      <trkpt lat="42.33473" lon="8.88527">
        <ele>1690.4</ele>
        <time>2015-06-28T05:57:29Z</time>
      </trkpt>
      <trkpt lat="42.33473" lon="8.88529">
        <ele>1689.8</ele>
        <time>2015-06-28T05:57:33Z</time>
      </trkpt>
      <trkpt lat="42.33473" lon="8.88531">
        <ele>1688.8</ele>
        <time>2015-06-28T05:57:38Z</time>
      </trkpt>
      <trkpt lat="42.33472" lon="8.88534">
        <ele>1687.4</ele>
        <time>2015-06-28T05:57:44Z</time>
      </trkpt>
      <trkpt lat="42.3347" lon="8.88537">
        <ele>1686.4</ele>
        <time>2015-06-28T05:57:49Z</time>
      </trkpt>
      <trkpt lat="42.3347" lon="8.88539">
        <ele>1685.4</ele>
        <time>2015-06-28T05:57:54Z</time>
      </trkpt>
      <trkpt lat="42.33469" lon="8.88543">
        <ele>1684</ele>
        <time>2015-06-28T05:58:00Z</time>
      </trkpt>
      <trkpt lat="42.33469" lon="8.88548">
        <ele>1683.2</ele>
        <time>2015-06-28T05:58:06Z</time>
      </trkpt>
      <trkpt lat="42.33468" lon="8.88551">
        <ele>1682</ele>
        <time>2015-06-28T05:58:11Z</time>
      </trkpt>
      <trkpt lat="42.33468" lon="8.88553">
        <ele>1681.6</ele>
        <time>2015-06-28T05:58:15Z</time>
      </trkpt>
      <trkpt lat="42.33468" lon="8.88558">
        <ele>1680</ele>
        <time>2015-06-28T05:58:21Z</time>
      </trkpt>
      <trkpt lat="42.33471" lon="8.88563">
        <ele>1678.8</ele>
        <time>2015-06-28T05:58:27Z</time>
      </trkpt>
      <trkpt lat="42.33473" lon="8.88571">
        <ele>1677.8</ele>
        <time>2015-06-28T05:58:34Z</time>
      </trkpt>
      <trkpt lat="42.33474" lon="8.88572">
        <ele>1677.6</ele>
        <time>2015-06-28T05:58:36Z</time>
      </trkpt>
      <trkpt lat="42.33476" lon="8.88577">
        <ele>1677</ele>
        <time>2015-06-28T05:58:42Z</time>
      </trkpt>
      <trkpt lat="42.33477" lon="8.88581">
        <ele>1676</ele>
        <time>2015-06-28T05:58:47Z</time>
      </trkpt>
      <trkpt lat="42.33476" lon="8.88584">
        <ele>1675</ele>
        <time>2015-06-28T05:58:52Z</time>
      </trkpt>
      <trkpt lat="42.33477" lon="8.88588">
        <ele>1673.6</ele>
        <time>2015-06-28T05:58:58Z</time>
      </trkpt>
      <trkpt lat="42.33477" lon="8.88592">
        <ele>1673.2</ele>
        <time>2015-06-28T05:59:02Z</time>
      </trkpt>
      <trkpt lat="42.3348" lon="8.88593">
        <ele>1672.2</ele>
        <time>2015-06-28T05:59:05Z</time>
      </trkpt>
      <trkpt lat="42.33483" lon="8.88598">
        <ele>1670.8</ele>
        <time>2015-06-28T05:59:10Z</time>
      </trkpt>
      <trkpt lat="42.3349" lon="8.88609">
        <ele>1668.8</ele>
        <time>2015-06-28T05:59:26Z</time>
      </trkpt>
      <trkpt lat="42.33492" lon="8.88611">
        <ele>1668.2</ele>
        <time>2015-06-28T05:59:34Z</time>
      </trkpt>
      <trkpt lat="42.33492" lon="8.88611">
        <ele>1667</ele>
        <time>2015-06-28T05:59:41Z</time>
      </trkpt>
      <trkpt lat="42.33492" lon="8.8861">
        <ele>1666.8</ele>
        <time>2015-06-28T05:59:48Z</time>
      </trkpt>
      <trkpt lat="42.33491" lon="8.8861">
        <ele>1667.6</ele>
        <time>2015-06-28T06:00:16Z</time>
      </trkpt>
      <trkpt lat="42.33491" lon="8.8861">
        <ele>1666.8</ele>
        <time>2015-06-28T06:00:29Z</time>
      </trkpt>
      <trkpt lat="42.33492" lon="8.8861">
        <ele>1667.4</ele>
        <time>2015-06-28T06:01:51Z</time>
      </trkpt>
      <trkpt lat="42.33498" lon="8.88612">
        <ele>1667</ele>
        <time>2015-06-28T06:02:07Z</time>
      </trkpt>
      <trkpt lat="42.33499" lon="8.88619">
        <ele>1666.6</ele>
        <time>2015-06-28T06:02:19Z</time>
      </trkpt>
      <trkpt lat="42.33499" lon="8.88619">
        <ele>1666</ele>
        <time>2015-06-28T06:02:24Z</time>
      </trkpt>
      <trkpt lat="42.33494" lon="8.88623">
        <ele>1664.6</ele>
        <time>2015-06-28T06:02:31Z</time>
      </trkpt>
      <trkpt lat="42.33495" lon="8.88626">
        <ele>1663.8</ele>
        <time>2015-06-28T06:02:39Z</time>
      </trkpt>
      <trkpt lat="42.33492" lon="8.8863">
        <ele>1663</ele>
        <time>2015-06-28T06:02:44Z</time>
      </trkpt>
      <trkpt lat="42.33491" lon="8.88631">
        <ele>1662.4</ele>
        <time>2015-06-28T06:02:47Z</time>
      </trkpt>
      <trkpt lat="42.33493" lon="8.88634">
        <ele>1662.2</ele>
        <time>2015-06-28T06:02:51Z</time>
      </trkpt>
      <trkpt lat="42.33493" lon="8.88638">
        <ele>1661.6</ele>
        <time>2015-06-28T06:02:54Z</time>
      </trkpt>
      <trkpt lat="42.33495" lon="8.88641">
        <ele>1660.4</ele>
        <time>2015-06-28T06:02:58Z</time>
      </trkpt>
      <trkpt lat="42.33496" lon="8.88645">
        <ele>1659</ele>
        <time>2015-06-28T06:03:03Z</time>
      </trkpt>
      <trkpt lat="42.33499" lon="8.88647">
        <ele>1657.8</ele>
        <time>2015-06-28T06:03:08Z</time>
      </trkpt>
      <trkpt lat="42.33499" lon="8.88649">
        <ele>1656.6</ele>
        <time>2015-06-28T06:03:13Z</time>
      </trkpt>
      <trkpt lat="42.33504" lon="8.88651">
        <ele>1655.4</ele>
        <time>2015-06-28T06:03:18Z</time>
      </trkpt>
      <trkpt lat="42.33512" lon="8.88653">
        <ele>1653.6</ele>
        <time>2015-06-28T06:03:28Z</time>
      </trkpt>
      <trkpt lat="42.33514" lon="8.88654">
        <ele>1653</ele>
        <time>2015-06-28T06:03:35Z</time>
      </trkpt>
      <trkpt lat="42.33518" lon="8.88654">
        <ele>1652</ele>
        <time>2015-06-28T06:03:41Z</time>
      </trkpt>
      <trkpt lat="42.33518" lon="8.88656">
        <ele>1651.4</ele>
        <time>2015-06-28T06:03:44Z</time>
      </trkpt>
      <trkpt lat="42.33519" lon="8.88658">
        <ele>1650.8</ele>
        <time>2015-06-28T06:03:47Z</time>
      </trkpt>
      <trkpt lat="42.33519" lon="8.88663">
        <ele>1649.6</ele>
        <time>2015-06-28T06:03:53Z</time>
      </trkpt>
      <trkpt lat="42.33523" lon="8.88664">
        <ele>1648.8</ele>
        <time>2015-06-28T06:03:57Z</time>
      </trkpt>
      <trkpt lat="42.33524" lon="8.88664">
        <ele>1648.8</ele>
        <time>2015-06-28T06:03:58Z</time>
      </trkpt>
      <trkpt lat="42.33524" lon="8.8867">
        <ele>1647</ele>
        <time>2015-06-28T06:04:07Z</time>
      </trkpt>
      <trkpt lat="42.33525" lon="8.88673">
        <ele>1646.6</ele>
        <time>2015-06-28T06:04:11Z</time>
      </trkpt>
      <trkpt lat="42.33525" lon="8.88678">
        <ele>1645.6</ele>
        <time>2015-06-28T06:04:16Z</time>
      </trkpt>
      <trkpt lat="42.33527" lon="8.88682">
        <ele>1644.4</ele>
        <time>2015-06-28T06:04:21Z</time>
      </trkpt>
      <trkpt lat="42.33528" lon="8.88688">
        <ele>1643.2</ele>
        <time>2015-06-28T06:04:28Z</time>
      </trkpt>
      <trkpt lat="42.33528" lon="8.88692">
        <ele>1642.2</ele>
        <time>2015-06-28T06:04:35Z</time>
      </trkpt>
      <trkpt lat="42.33526" lon="8.88696">
        <ele>1641.2</ele>
        <time>2015-06-28T06:04:40Z</time>
      </trkpt>
      <trkpt lat="42.33529" lon="8.88699">
        <ele>1640</ele>
        <time>2015-06-28T06:04:46Z</time>
      </trkpt>
      <trkpt lat="42.33532" lon="8.88701">
        <ele>1639</ele>
        <time>2015-06-28T06:04:51Z</time>
      </trkpt>
      <trkpt lat="42.33533" lon="8.88701">
        <ele>1637.8</ele>
        <time>2015-06-28T06:04:57Z</time>
      </trkpt>
      <trkpt lat="42.33532" lon="8.88704">
        <ele>1636.6</ele>
        <time>2015-06-28T06:05:04Z</time>
      </trkpt>
      <trkpt lat="42.33531" lon="8.88708">
        <ele>1636</ele>
        <time>2015-06-28T06:05:09Z</time>
      </trkpt>
      <trkpt lat="42.33536" lon="8.8871">
        <ele>1634.8</ele>
        <time>2015-06-28T06:05:15Z</time>
      </trkpt>
      <trkpt lat="42.33538" lon="8.88711">
        <ele>1633.2</ele>
        <time>2015-06-28T06:05:24Z</time>
      </trkpt>
      <trkpt lat="42.33539" lon="8.88714">
        <ele>1632.8</ele>
        <time>2015-06-28T06:05:28Z</time>
      </trkpt>
      <trkpt lat="42.33543" lon="8.88715">
        <ele>1632.4</ele>
        <time>2015-06-28T06:05:31Z</time>
      </trkpt>
      <trkpt lat="42.33544" lon="8.88717">
        <ele>1629.8</ele>
        <time>2015-06-28T06:05:50Z</time>
      </trkpt>
      <trkpt lat="42.33546" lon="8.88721">
        <ele>1629.2</ele>
        <time>2015-06-28T06:05:58Z</time>
      </trkpt>
      <trkpt lat="42.33548" lon="8.88724">
        <ele>1628.8</ele>
        <time>2015-06-28T06:06:03Z</time>
      </trkpt>
      <trkpt lat="42.3355" lon="8.88724">
        <ele>1627.6</ele>
        <time>2015-06-28T06:06:07Z</time>
      </trkpt>
      <trkpt lat="42.33552" lon="8.88724">
        <ele>1626.2</ele>
        <time>2015-06-28T06:06:12Z</time>
      </trkpt>
      <trkpt lat="42.33553" lon="8.88724">
        <ele>1625</ele>
        <time>2015-06-28T06:06:18Z</time>
      </trkpt>
      <trkpt lat="42.33553" lon="8.88721">
        <ele>1623.8</ele>
        <time>2015-06-28T06:06:25Z</time>
      </trkpt>
      <trkpt lat="42.33555" lon="8.88723">
        <ele>1622.8</ele>
        <time>2015-06-28T06:06:33Z</time>
      </trkpt>
      <trkpt lat="42.33558" lon="8.88724">
        <ele>1621.6</ele>
        <time>2015-06-28T06:06:41Z</time>
      </trkpt>
      <trkpt lat="42.3356" lon="8.88732">
        <ele>1620.2</ele>
        <time>2015-06-28T06:07:02Z</time>
      </trkpt>
      <trkpt lat="42.33561" lon="8.88743">
        <ele>1619</ele>
        <time>2015-06-28T06:07:31Z</time>
      </trkpt>
      <trkpt lat="42.3356" lon="8.88746">
        <ele>1619</ele>
        <time>2015-06-28T06:07:34Z</time>
      </trkpt>
      <trkpt lat="42.33559" lon="8.88747">
        <ele>1619</ele>
        <time>2015-06-28T06:07:35Z</time>
      </trkpt>
      <trkpt lat="42.3356" lon="8.88762">
        <ele>1617.4</ele>
        <time>2015-06-28T06:07:51Z</time>
      </trkpt>
      <trkpt lat="42.33561" lon="8.88768">
        <ele>1616.8</ele>
        <time>2015-06-28T06:08:01Z</time>
      </trkpt>
      <trkpt lat="42.33563" lon="8.88771">
        <ele>1616</ele>
        <time>2015-06-28T06:08:06Z</time>
      </trkpt>
      <trkpt lat="42.33564" lon="8.88777">
        <ele>1614.6</ele>
        <time>2015-06-28T06:08:12Z</time>
      </trkpt>
      <trkpt lat="42.33564" lon="8.88783">
        <ele>1614</ele>
        <time>2015-06-28T06:08:16Z</time>
      </trkpt>
      <trkpt lat="42.33564" lon="8.8879">
        <ele>1612.4</ele>
        <time>2015-06-28T06:08:22Z</time>
      </trkpt>
      <trkpt lat="42.33563" lon="8.88795">
        <ele>1611.8</ele>
        <time>2015-06-28T06:08:27Z</time>
      </trkpt>
      <trkpt lat="42.33562" lon="8.88799">
        <ele>1610.6</ele>
        <time>2015-06-28T06:08:32Z</time>
      </trkpt>
      <trkpt lat="42.33563" lon="8.88803">
        <ele>1610</ele>
        <time>2015-06-28T06:08:36Z</time>
      </trkpt>
      <trkpt lat="42.33563" lon="8.88808">
        <ele>1608.4</ele>
        <time>2015-06-28T06:08:41Z</time>
      </trkpt>
      <trkpt lat="42.33562" lon="8.88814">
        <ele>1607</ele>
        <time>2015-06-28T06:08:47Z</time>
      </trkpt>
      <trkpt lat="42.33561" lon="8.88819">
        <ele>1606</ele>
        <time>2015-06-28T06:08:52Z</time>
      </trkpt>
      <trkpt lat="42.3356" lon="8.88822">
        <ele>1604.8</ele>
        <time>2015-06-28T06:08:57Z</time>
      </trkpt>
      <trkpt lat="42.3356" lon="8.88824">
        <ele>1604.4</ele>
        <time>2015-06-28T06:09:01Z</time>
      </trkpt>
      <trkpt lat="42.33562" lon="8.88826">
        <ele>1602.6</ele>
        <time>2015-06-28T06:09:07Z</time>
      </trkpt>
      <trkpt lat="42.33562" lon="8.8883">
        <ele>1601.4</ele>
        <time>2015-06-28T06:09:13Z</time>
      </trkpt>
      <trkpt lat="42.33563" lon="8.88837">
        <ele>1600.6</ele>
        <time>2015-06-28T06:09:18Z</time>
      </trkpt>
      <trkpt lat="42.33564" lon="8.88839">
        <ele>1600.4</ele>
        <time>2015-06-28T06:09:19Z</time>
      </trkpt>
      <trkpt lat="42.33563" lon="8.88839">
        <ele>1600</ele>
        <time>2015-06-28T06:09:21Z</time>
      </trkpt>
      <trkpt lat="42.33563" lon="8.88843">
        <ele>1598.6</ele>
        <time>2015-06-28T06:09:34Z</time>
      </trkpt>
      <trkpt lat="42.33563" lon="8.88845">
        <ele>1598.6</ele>
        <time>2015-06-28T06:09:38Z</time>
      </trkpt>
      <trkpt lat="42.33563" lon="8.88846">
        <ele>1597.6</ele>
        <time>2015-06-28T06:09:42Z</time>
      </trkpt>
      <trkpt lat="42.33565" lon="8.88848">
        <ele>1595.8</ele>
        <time>2015-06-28T06:09:49Z</time>
      </trkpt>
      <trkpt lat="42.33564" lon="8.88851">
        <ele>1595.2</ele>
        <time>2015-06-28T06:09:57Z</time>
      </trkpt>
      <trkpt lat="42.33565" lon="8.88854">
        <ele>1593.6</ele>
        <time>2015-06-28T06:10:12Z</time>
      </trkpt>
      <trkpt lat="42.33568" lon="8.8886">
        <ele>1592.8</ele>
        <time>2015-06-28T06:10:28Z</time>
      </trkpt>
      <trkpt lat="42.33569" lon="8.88862">
        <ele>1592</ele>
        <time>2015-06-28T06:10:34Z</time>
      </trkpt>
      <trkpt lat="42.33572" lon="8.88867">
        <ele>1590.6</ele>
        <time>2015-06-28T06:10:42Z</time>
      </trkpt>
      <trkpt lat="42.33573" lon="8.88871">
        <ele>1589.8</ele>
        <time>2015-06-28T06:10:47Z</time>
      </trkpt>
      <trkpt lat="42.33572" lon="8.88878">
        <ele>1588</ele>
        <time>2015-06-28T06:10:59Z</time>
      </trkpt>
      <trkpt lat="42.33568" lon="8.88876">
        <ele>1587.2</ele>
        <time>2015-06-28T06:11:11Z</time>
      </trkpt>
      <trkpt lat="42.33567" lon="8.88874">
        <ele>1586.2</ele>
        <time>2015-06-28T06:11:19Z</time>
      </trkpt>
      <trkpt lat="42.33567" lon="8.88873">
        <ele>1585.2</ele>
        <time>2015-06-28T06:11:28Z</time>
      </trkpt>
      <trkpt lat="42.33565" lon="8.88876">
        <ele>1583.8</ele>
        <time>2015-06-28T06:11:45Z</time>
      </trkpt>
      <trkpt lat="42.33566" lon="8.88876">
        <ele>1582.8</ele>
        <time>2015-06-28T06:12:02Z</time>
      </trkpt>
      <trkpt lat="42.33563" lon="8.88878">
        <ele>1581.8</ele>
        <time>2015-06-28T06:12:21Z</time>
      </trkpt>
      <trkpt lat="42.33558" lon="8.88878">
        <ele>1581.4</ele>
        <time>2015-06-28T06:12:28Z</time>
      </trkpt>
      <trkpt lat="42.33557" lon="8.88879">
        <ele>1581.4</ele>
        <time>2015-06-28T06:12:29Z</time>
      </trkpt>
      <trkpt lat="42.33558" lon="8.88879">
        <ele>1580.8</ele>
        <time>2015-06-28T06:12:33Z</time>
      </trkpt>
      <trkpt lat="42.33561" lon="8.88881">
        <ele>1579.4</ele>
        <time>2015-06-28T06:12:39Z</time>
      </trkpt>
      <trkpt lat="42.33561" lon="8.88884">
        <ele>1578.8</ele>
        <time>2015-06-28T06:12:43Z</time>
      </trkpt>
      <trkpt lat="42.33561" lon="8.88886">
        <ele>1577.4</ele>
        <time>2015-06-28T06:12:49Z</time>
      </trkpt>
      <trkpt lat="42.3356" lon="8.8889">
        <ele>1576.2</ele>
        <time>2015-06-28T06:12:56Z</time>
      </trkpt>
      <trkpt lat="42.3356" lon="8.88895">
        <ele>1575.4</ele>
        <time>2015-06-28T06:13:01Z</time>
      </trkpt>
      <trkpt lat="42.33559" lon="8.889">
        <ele>1573.8</ele>
        <time>2015-06-28T06:13:09Z</time>
      </trkpt>
      <trkpt lat="42.33558" lon="8.88902">
        <ele>1573.6</ele>
        <time>2015-06-28T06:13:13Z</time>
      </trkpt>
      <trkpt lat="42.33558" lon="8.88901">
        <ele>1573.2</ele>
        <time>2015-06-28T06:13:14Z</time>
      </trkpt>
      <trkpt lat="42.33557" lon="8.88904">
        <ele>1571.8</ele>
        <time>2015-06-28T06:13:18Z</time>
      </trkpt>
      <trkpt lat="42.33555" lon="8.88903">
        <ele>1571.2</ele>
        <time>2015-06-28T06:13:22Z</time>
      </trkpt>
      <trkpt lat="42.33554" lon="8.88905">
        <ele>1569.6</ele>
        <time>2015-06-28T06:13:27Z</time>
      </trkpt>
      <trkpt lat="42.33552" lon="8.88906">
        <ele>1568.6</ele>
        <time>2015-06-28T06:13:32Z</time>
      </trkpt>
      <trkpt lat="42.33551" lon="8.8891">
        <ele>1567</ele>
        <time>2015-06-28T06:13:40Z</time>
      </trkpt>
      <trkpt lat="42.33548" lon="8.88912">
        <ele>1566</ele>
        <time>2015-06-28T06:13:46Z</time>
      </trkpt>
      <trkpt lat="42.33546" lon="8.88916">
        <ele>1564.4</ele>
        <time>2015-06-28T06:13:57Z</time>
      </trkpt>
      <trkpt lat="42.33542" lon="8.88919">
        <ele>1564</ele>
        <time>2015-06-28T06:14:03Z</time>
      </trkpt>
      <trkpt lat="42.33541" lon="8.88923">
        <ele>1563.2</ele>
        <time>2015-06-28T06:14:07Z</time>
      </trkpt>
      <trkpt lat="42.33539" lon="8.88928">
        <ele>1562</ele>
        <time>2015-06-28T06:14:12Z</time>
      </trkpt>
      <trkpt lat="42.3354" lon="8.88931">
        <ele>1560.8</ele>
        <time>2015-06-28T06:14:16Z</time>
      </trkpt>
      <trkpt lat="42.3354" lon="8.88934">
        <ele>1559.4</ele>
        <time>2015-06-28T06:14:21Z</time>
      </trkpt>
      <trkpt lat="42.33538" lon="8.88938">
        <ele>1558.2</ele>
        <time>2015-06-28T06:14:27Z</time>
      </trkpt>
      <trkpt lat="42.33537" lon="8.88942">
        <ele>1557</ele>
        <time>2015-06-28T06:14:33Z</time>
      </trkpt>
      <trkpt lat="42.33537" lon="8.88946">
        <ele>1556.2</ele>
        <time>2015-06-28T06:14:39Z</time>
      </trkpt>
      <trkpt lat="42.33538" lon="8.88951">
        <ele>1555.2</ele>
        <time>2015-06-28T06:14:45Z</time>
      </trkpt>
      <trkpt lat="42.33538" lon="8.88954">
        <ele>1554.4</ele>
        <time>2015-06-28T06:14:49Z</time>
      </trkpt>
      <trkpt lat="42.33539" lon="8.88954">
        <ele>1554</ele>
        <time>2015-06-28T06:14:51Z</time>
      </trkpt>
      <trkpt lat="42.33541" lon="8.88957">
        <ele>1552.4</ele>
        <time>2015-06-28T06:14:59Z</time>
      </trkpt>
      <trkpt lat="42.33542" lon="8.88962">
        <ele>1551.6</ele>
        <time>2015-06-28T06:15:07Z</time>
      </trkpt>
      <trkpt lat="42.33541" lon="8.88966">
        <ele>1550.8</ele>
        <time>2015-06-28T06:15:13Z</time>
      </trkpt>
      <trkpt lat="42.33538" lon="8.88968">
        <ele>1549.4</ele>
        <time>2015-06-28T06:15:20Z</time>
      </trkpt>
      <trkpt lat="42.33535" lon="8.88972">
        <ele>1548.6</ele>
        <time>2015-06-28T06:15:26Z</time>
      </trkpt>
      <trkpt lat="42.33535" lon="8.88977">
        <ele>1547.2</ele>
        <time>2015-06-28T06:15:32Z</time>
      </trkpt>
      <trkpt lat="42.33537" lon="8.88981">
        <ele>1546.4</ele>
        <time>2015-06-28T06:15:37Z</time>
      </trkpt>
      <trkpt lat="42.33538" lon="8.88986">
        <ele>1545.4</ele>
        <time>2015-06-28T06:15:42Z</time>
      </trkpt>
      <trkpt lat="42.3354" lon="8.88989">
        <ele>1544.8</ele>
        <time>2015-06-28T06:15:45Z</time>
      </trkpt>
      <trkpt lat="42.3354" lon="8.88993">
        <ele>1543.4</ele>
        <time>2015-06-28T06:15:50Z</time>
      </trkpt>
      <trkpt lat="42.33539" lon="8.88995">
        <ele>1542.2</ele>
        <time>2015-06-28T06:15:55Z</time>
      </trkpt>
      <trkpt lat="42.33537" lon="8.88999">
        <ele>1540.8</ele>
        <time>2015-06-28T06:16:01Z</time>
      </trkpt>
      <trkpt lat="42.33538" lon="8.89002">
        <ele>1539.6</ele>
        <time>2015-06-28T06:16:07Z</time>
      </trkpt>
      <trkpt lat="42.33537" lon="8.89005">
        <ele>1538.8</ele>
        <time>2015-06-28T06:16:12Z</time>
      </trkpt>
      <trkpt lat="42.33536" lon="8.89009">
        <ele>1537.4</ele>
        <time>2015-06-28T06:16:18Z</time>
      </trkpt>
      <trkpt lat="42.33539" lon="8.89012">
        <ele>1536.6</ele>
        <time>2015-06-28T06:16:23Z</time>
      </trkpt>
      <trkpt lat="42.3354" lon="8.89016">
        <ele>1535.2</ele>
        <time>2015-06-28T06:16:30Z</time>
      </trkpt>
      <trkpt lat="42.33538" lon="8.89019">
        <ele>1534.2</ele>
        <time>2015-06-28T06:16:36Z</time>
      </trkpt>
      <trkpt lat="42.3354" lon="8.89021">
        <ele>1533.8</ele>
        <time>2015-06-28T06:16:39Z</time>
      </trkpt>
      <trkpt lat="42.3354" lon="8.89023">
        <ele>1533.4</ele>
        <time>2015-06-28T06:16:41Z</time>
      </trkpt>
      <trkpt lat="42.33541" lon="8.89026">
        <ele>1532</ele>
        <time>2015-06-28T06:16:47Z</time>
      </trkpt>
      <trkpt lat="42.33539" lon="8.89031">
        <ele>1530.6</ele>
        <time>2015-06-28T06:16:55Z</time>
      </trkpt>
      <trkpt lat="42.33541" lon="8.89035">
        <ele>1529.8</ele>
        <time>2015-06-28T06:17:01Z</time>
      </trkpt>
      <trkpt lat="42.33541" lon="8.89039">
        <ele>1528.2</ele>
        <time>2015-06-28T06:17:09Z</time>
      </trkpt>
      <trkpt lat="42.33541" lon="8.89041">
        <ele>1527.4</ele>
        <time>2015-06-28T06:17:16Z</time>
      </trkpt>
      <trkpt lat="42.33536" lon="8.8905">
        <ele>1525.8</ele>
        <time>2015-06-28T06:18:24Z</time>
      </trkpt>
      <trkpt lat="42.33537" lon="8.89051">
        <ele>1525.4</ele>
        <time>2015-06-28T06:19:48Z</time>
      </trkpt>
      <trkpt lat="42.33539" lon="8.89046">
        <ele>1525</ele>
        <time>2015-06-28T06:21:59Z</time>
      </trkpt>
      <trkpt lat="42.33537" lon="8.89043">
        <ele>1525.2</ele>
        <time>2015-06-28T06:24:11Z</time>
      </trkpt>
      <trkpt lat="42.33536" lon="8.89054">
        <ele>1524.6</ele>
        <time>2015-06-28T06:25:06Z</time>
      </trkpt>
      <trkpt lat="42.33534" lon="8.89056">
        <ele>1524.6</ele>
        <time>2015-06-28T06:25:08Z</time>
      </trkpt>
      <trkpt lat="42.33533" lon="8.89058">
        <ele>1524.4</ele>
        <time>2015-06-28T06:25:10Z</time>
      </trkpt>
      <trkpt lat="42.33533" lon="8.89063">
        <ele>1523.4</ele>
        <time>2015-06-28T06:25:14Z</time>
      </trkpt>
      <trkpt lat="42.33532" lon="8.89068">
        <ele>1522.2</ele>
        <time>2015-06-28T06:25:20Z</time>
      </trkpt>
      <trkpt lat="42.33533" lon="8.89073">
        <ele>1521</ele>
        <time>2015-06-28T06:25:27Z</time>
      </trkpt>
      <trkpt lat="42.33537" lon="8.89078">
        <ele>1520.2</ele>
        <time>2015-06-28T06:25:33Z</time>
      </trkpt>
      <trkpt lat="42.33541" lon="8.89082">
        <ele>1519</ele>
        <time>2015-06-28T06:25:39Z</time>
      </trkpt>
      <trkpt lat="42.33543" lon="8.89084">
        <ele>1518.4</ele>
        <time>2015-06-28T06:25:43Z</time>
      </trkpt>
      <trkpt lat="42.33545" lon="8.89086">
        <ele>1517.4</ele>
        <time>2015-06-28T06:25:48Z</time>
      </trkpt>
      <trkpt lat="42.33545" lon="8.89089">
        <ele>1516</ele>
        <time>2015-06-28T06:25:54Z</time>
      </trkpt>
      <trkpt lat="42.33547" lon="8.89092">
        <ele>1514.4</ele>
        <time>2015-06-28T06:26:01Z</time>
      </trkpt>
      <trkpt lat="42.33549" lon="8.89095">
        <ele>1513.6</ele>
        <time>2015-06-28T06:26:08Z</time>
      </trkpt>
      <trkpt lat="42.33548" lon="8.89098">
        <ele>1512.4</ele>
        <time>2015-06-28T06:26:15Z</time>
      </trkpt>
      <trkpt lat="42.33546" lon="8.89102">
        <ele>1511.4</ele>
        <time>2015-06-28T06:26:21Z</time>
      </trkpt>
      <trkpt lat="42.33548" lon="8.89103">
        <ele>1510.2</ele>
        <time>2015-06-28T06:26:28Z</time>
      </trkpt>
      <trkpt lat="42.33546" lon="8.89108">
        <ele>1509.2</ele>
        <time>2015-06-28T06:26:35Z</time>
      </trkpt>
      <trkpt lat="42.33546" lon="8.89111">
        <ele>1508</ele>
        <time>2015-06-28T06:26:42Z</time>
      </trkpt>
      <trkpt lat="42.33546" lon="8.89115">
        <ele>1506.8</ele>
        <time>2015-06-28T06:26:49Z</time>
      </trkpt>
      <trkpt lat="42.33548" lon="8.89118">
        <ele>1505.8</ele>
        <time>2015-06-28T06:26:55Z</time>
      </trkpt>
      <trkpt lat="42.33545" lon="8.89122">
        <ele>1505</ele>
        <time>2015-06-28T06:27:00Z</time>
      </trkpt>
      <trkpt lat="42.33547" lon="8.89126">
        <ele>1503.4</ele>
        <time>2015-06-28T06:27:09Z</time>
      </trkpt>
      <trkpt lat="42.33547" lon="8.89131">
        <ele>1502.4</ele>
        <time>2015-06-28T06:27:16Z</time>
      </trkpt>
      <trkpt lat="42.33552" lon="8.89131">
        <ele>1501.4</ele>
        <time>2015-06-28T06:27:22Z</time>
      </trkpt>
      <trkpt lat="42.33551" lon="8.89134">
        <ele>1500.4</ele>
        <time>2015-06-28T06:27:27Z</time>
      </trkpt>
      <trkpt lat="42.33552" lon="8.8914">
        <ele>1498.8</ele>
        <time>2015-06-28T06:27:35Z</time>
      </trkpt>
      <trkpt lat="42.3355" lon="8.89145">
        <ele>1498</ele>
        <time>2015-06-28T06:27:41Z</time>
      </trkpt>
      <trkpt lat="42.33554" lon="8.89149">
        <ele>1496.4</ele>
        <time>2015-06-28T06:27:49Z</time>
      </trkpt>
      <trkpt lat="42.33558" lon="8.89148">
        <ele>1496</ele>
        <time>2015-06-28T06:27:53Z</time>
      </trkpt>
      <trkpt lat="42.33558" lon="8.89149">
        <ele>1496</ele>
        <time>2015-06-28T06:27:54Z</time>
      </trkpt>
      <trkpt lat="42.33561" lon="8.89151">
        <ele>1494.4</ele>
        <time>2015-06-28T06:28:01Z</time>
      </trkpt>
      <trkpt lat="42.33562" lon="8.89155">
        <ele>1493.8</ele>
        <time>2015-06-28T06:28:06Z</time>
      </trkpt>
      <trkpt lat="42.33561" lon="8.89161">
        <ele>1492.4</ele>
        <time>2015-06-28T06:28:12Z</time>
      </trkpt>
      <trkpt lat="42.3356" lon="8.89164">
        <ele>1491</ele>
        <time>2015-06-28T06:28:19Z</time>
      </trkpt>
      <trkpt lat="42.33561" lon="8.89169">
        <ele>1489.8</ele>
        <time>2015-06-28T06:28:29Z</time>
      </trkpt>
      <trkpt lat="42.3356" lon="8.89176">
        <ele>1488.4</ele>
        <time>2015-06-28T06:28:37Z</time>
      </trkpt>
      <trkpt lat="42.33561" lon="8.89176">
        <ele>1488.2</ele>
        <time>2015-06-28T06:28:38Z</time>
      </trkpt>
      <trkpt lat="42.33563" lon="8.89177">
        <ele>1488</ele>
        <time>2015-06-28T06:28:42Z</time>
      </trkpt>
      <trkpt lat="42.33566" lon="8.89181">
        <ele>1486.2</ele>
        <time>2015-06-28T06:28:53Z</time>
      </trkpt>
      <trkpt lat="42.33567" lon="8.89183">
        <ele>1485.6</ele>
        <time>2015-06-28T06:28:58Z</time>
      </trkpt>
      <trkpt lat="42.33572" lon="8.89189">
        <ele>1483.6</ele>
        <time>2015-06-28T06:29:12Z</time>
      </trkpt>
      <trkpt lat="42.33573" lon="8.89199">
        <ele>1483</ele>
        <time>2015-06-28T06:29:26Z</time>
      </trkpt>
      <trkpt lat="42.33573" lon="8.89202">
        <ele>1482.2</ele>
        <time>2015-06-28T06:29:31Z</time>
      </trkpt>
      <trkpt lat="42.33578" lon="8.89206">
        <ele>1480.6</ele>
        <time>2015-06-28T06:29:49Z</time>
      </trkpt>
      <trkpt lat="42.33577" lon="8.89212">
        <ele>1479.8</ele>
        <time>2015-06-28T06:30:00Z</time>
      </trkpt>
      <trkpt lat="42.33577" lon="8.89217">
        <ele>1478.4</ele>
        <time>2015-06-28T06:30:10Z</time>
      </trkpt>
      <trkpt lat="42.33578" lon="8.8922">
        <ele>1477.8</ele>
        <time>2015-06-28T06:30:17Z</time>
      </trkpt>
      <trkpt lat="42.33577" lon="8.89225">
        <ele>1477</ele>
        <time>2015-06-28T06:30:22Z</time>
      </trkpt>
      <trkpt lat="42.33575" lon="8.8923">
        <ele>1475.6</ele>
        <time>2015-06-28T06:30:28Z</time>
      </trkpt>
      <trkpt lat="42.33575" lon="8.89234">
        <ele>1474.6</ele>
        <time>2015-06-28T06:30:33Z</time>
      </trkpt>
      <trkpt lat="42.33574" lon="8.89241">
        <ele>1473.2</ele>
        <time>2015-06-28T06:30:41Z</time>
      </trkpt>
      <trkpt lat="42.33576" lon="8.89245">
        <ele>1472.4</ele>
        <time>2015-06-28T06:30:47Z</time>
      </trkpt>
      <trkpt lat="42.33575" lon="8.89251">
        <ele>1471.4</ele>
        <time>2015-06-28T06:30:53Z</time>
      </trkpt>
      <trkpt lat="42.33576" lon="8.89254">
        <ele>1470.6</ele>
        <time>2015-06-28T06:30:57Z</time>
      </trkpt>
      <trkpt lat="42.33578" lon="8.89259">
        <ele>1469.2</ele>
        <time>2015-06-28T06:31:03Z</time>
      </trkpt>
      <trkpt lat="42.33577" lon="8.89265">
        <ele>1467.8</ele>
        <time>2015-06-28T06:31:09Z</time>
      </trkpt>
      <trkpt lat="42.33578" lon="8.8927">
        <ele>1467</ele>
        <time>2015-06-28T06:31:14Z</time>
      </trkpt>
      <trkpt lat="42.3358" lon="8.89277">
        <ele>1465</ele>
        <time>2015-06-28T06:31:23Z</time>
      </trkpt>
      <trkpt lat="42.33581" lon="8.89281">
        <ele>1464.4</ele>
        <time>2015-06-28T06:31:29Z</time>
      </trkpt>
      <trkpt lat="42.33581" lon="8.89285">
        <ele>1463.6</ele>
        <time>2015-06-28T06:31:34Z</time>
      </trkpt>
      <trkpt lat="42.33583" lon="8.89291">
        <ele>1462</ele>
        <time>2015-06-28T06:31:41Z</time>
      </trkpt>
      <trkpt lat="42.33584" lon="8.89299">
        <ele>1461</ele>
        <time>2015-06-28T06:31:48Z</time>
      </trkpt>
      <trkpt lat="42.33584" lon="8.89307">
        <ele>1459.6</ele>
        <time>2015-06-28T06:31:56Z</time>
      </trkpt>
      <trkpt lat="42.33586" lon="8.89314">
        <ele>1458.6</ele>
        <time>2015-06-28T06:32:02Z</time>
      </trkpt>
      <trkpt lat="42.33587" lon="8.8932">
        <ele>1457.4</ele>
        <time>2015-06-28T06:32:08Z</time>
      </trkpt>
      <trkpt lat="42.33587" lon="8.89321">
        <ele>1457.4</ele>
        <time>2015-06-28T06:32:09Z</time>
      </trkpt>
      <trkpt lat="42.33588" lon="8.89325">
        <ele>1456.6</ele>
        <time>2015-06-28T06:32:14Z</time>
      </trkpt>
      <trkpt lat="42.33588" lon="8.89327">
        <ele>1456.4</ele>
        <time>2015-06-28T06:32:15Z</time>
      </trkpt>
      <trkpt lat="42.33589" lon="8.89333">
        <ele>1455</ele>
        <time>2015-06-28T06:32:20Z</time>
      </trkpt>
      <trkpt lat="42.3359" lon="8.89338">
        <ele>1454.2</ele>
        <time>2015-06-28T06:32:25Z</time>
      </trkpt>
      <trkpt lat="42.33592" lon="8.89345">
        <ele>1453</ele>
        <time>2015-06-28T06:32:32Z</time>
      </trkpt>
      <trkpt lat="42.33594" lon="8.89352">
        <ele>1451.8</ele>
        <time>2015-06-28T06:32:40Z</time>
      </trkpt>
      <trkpt lat="42.33595" lon="8.8936">
        <ele>1450.8</ele>
        <time>2015-06-28T06:32:47Z</time>
      </trkpt>
      <trkpt lat="42.33596" lon="8.89366">
        <ele>1450.2</ele>
        <time>2015-06-28T06:32:52Z</time>
      </trkpt>
      <trkpt lat="42.33599" lon="8.8937">
        <ele>1449.2</ele>
        <time>2015-06-28T06:32:56Z</time>
      </trkpt>
      <trkpt lat="42.336" lon="8.89382">
        <ele>1448.2</ele>
        <time>2015-06-28T06:33:04Z</time>
      </trkpt>
      <trkpt lat="42.336" lon="8.89386">
        <ele>1448</ele>
        <time>2015-06-28T06:33:07Z</time>
      </trkpt>
      <trkpt lat="42.33603" lon="8.89392">
        <ele>1447.6</ele>
        <time>2015-06-28T06:33:12Z</time>
      </trkpt>
      <trkpt lat="42.33608" lon="8.89401">
        <ele>1447.6</ele>
        <time>2015-06-28T06:33:21Z</time>
      </trkpt>
      <trkpt lat="42.33614" lon="8.89418">
        <ele>1447.4</ele>
        <time>2015-06-28T06:33:36Z</time>
      </trkpt>
      <trkpt lat="42.33618" lon="8.89431">
        <ele>1446.4</ele>
        <time>2015-06-28T06:33:46Z</time>
      </trkpt>
      <trkpt lat="42.33619" lon="8.89438">
        <ele>1445.8</ele>
        <time>2015-06-28T06:33:53Z</time>
      </trkpt>
      <trkpt lat="42.33624" lon="8.89448">
        <ele>1444.2</ele>
        <time>2015-06-28T06:34:01Z</time>
      </trkpt>
      <trkpt lat="42.33628" lon="8.89458">
        <ele>1444</ele>
        <time>2015-06-28T06:34:10Z</time>
      </trkpt>
      <trkpt lat="42.33625" lon="8.89475">
        <ele>1443.6</ele>
        <time>2015-06-28T06:34:26Z</time>
      </trkpt>
      <trkpt lat="42.33625" lon="8.8949">
        <ele>1442</ele>
        <time>2015-06-28T06:34:39Z</time>
      </trkpt>
      <trkpt lat="42.33624" lon="8.89491">
        <ele>1442</ele>
        <time>2015-06-28T06:34:41Z</time>
      </trkpt>
      <trkpt lat="42.33623" lon="8.89495">
        <ele>1441.8</ele>
        <time>2015-06-28T06:34:45Z</time>
      </trkpt>
      <trkpt lat="42.33621" lon="8.89499">
        <ele>1441</ele>
        <time>2015-06-28T06:34:50Z</time>
      </trkpt>
      <trkpt lat="42.3362" lon="8.89502">
        <ele>1440.2</ele>
        <time>2015-06-28T06:34:54Z</time>
      </trkpt>
      <trkpt lat="42.33621" lon="8.89505">
        <ele>1439.2</ele>
        <time>2015-06-28T06:34:58Z</time>
      </trkpt>
      <trkpt lat="42.33622" lon="8.89507">
        <ele>1438</ele>
        <time>2015-06-28T06:35:02Z</time>
      </trkpt>
      <trkpt lat="42.33623" lon="8.8951">
        <ele>1437</ele>
        <time>2015-06-28T06:35:06Z</time>
      </trkpt>
      <trkpt lat="42.33628" lon="8.8954">
        <ele>1435.4</ele>
        <time>2015-06-28T06:35:38Z</time>
      </trkpt>
      <trkpt lat="42.33626" lon="8.89544">
        <ele>1434.8</ele>
        <time>2015-06-28T06:35:43Z</time>
      </trkpt>
      <trkpt lat="42.33624" lon="8.89547">
        <ele>1433.8</ele>
        <time>2015-06-28T06:35:48Z</time>
      </trkpt>
      <trkpt lat="42.33624" lon="8.89552">
        <ele>1432.4</ele>
        <time>2015-06-28T06:35:54Z</time>
      </trkpt>
      <trkpt lat="42.33627" lon="8.8956">
        <ele>1431.2</ele>
        <time>2015-06-28T06:36:01Z</time>
      </trkpt>
      <trkpt lat="42.33628" lon="8.89568">
        <ele>1430.4</ele>
        <time>2015-06-28T06:36:06Z</time>
      </trkpt>
      <trkpt lat="42.3363" lon="8.89576">
        <ele>1429.2</ele>
        <time>2015-06-28T06:36:12Z</time>
      </trkpt>
      <trkpt lat="42.33633" lon="8.89584">
        <ele>1428</ele>
        <time>2015-06-28T06:36:19Z</time>
      </trkpt>
      <trkpt lat="42.33634" lon="8.8959">
        <ele>1427</ele>
        <time>2015-06-28T06:36:25Z</time>
      </trkpt>
      <trkpt lat="42.33631" lon="8.89596">
        <ele>1426</ele>
        <time>2015-06-28T06:36:31Z</time>
      </trkpt>
      <trkpt lat="42.33631" lon="8.89607">
        <ele>1424.8</ele>
        <time>2015-06-28T06:36:38Z</time>
      </trkpt>
      <trkpt lat="42.33632" lon="8.8962">
        <ele>1423.8</ele>
        <time>2015-06-28T06:36:45Z</time>
      </trkpt>
      <trkpt lat="42.33632" lon="8.89629">
        <ele>1422.6</ele>
        <time>2015-06-28T06:36:52Z</time>
      </trkpt>
      <trkpt lat="42.33635" lon="8.89636">
        <ele>1421.8</ele>
        <time>2015-06-28T06:36:58Z</time>
      </trkpt>
      <trkpt lat="42.33643" lon="8.89659">
        <ele>1420</ele>
        <time>2015-06-28T06:37:20Z</time>
      </trkpt>
      <trkpt lat="42.33654" lon="8.89671">
        <ele>1420</ele>
        <time>2015-06-28T06:37:34Z</time>
      </trkpt>
      <trkpt lat="42.33658" lon="8.89675">
        <ele>1421</ele>
        <time>2015-06-28T06:37:40Z</time>
      </trkpt>
      <trkpt lat="42.33664" lon="8.89689">
        <ele>1423</ele>
        <time>2015-06-28T06:37:54Z</time>
      </trkpt>
      <trkpt lat="42.33674" lon="8.89707">
        <ele>1424.2</ele>
        <time>2015-06-28T06:38:14Z</time>
      </trkpt>
      <trkpt lat="42.33678" lon="8.89709">
        <ele>1424.8</ele>
        <time>2015-06-28T06:38:21Z</time>
      </trkpt>
      <trkpt lat="42.33682" lon="8.89715">
        <ele>1425.8</ele>
        <time>2015-06-28T06:38:29Z</time>
      </trkpt>
      <trkpt lat="42.33686" lon="8.89722">
        <ele>1427</ele>
        <time>2015-06-28T06:38:37Z</time>
      </trkpt>
      <trkpt lat="42.33688" lon="8.89732">
        <ele>1428.4</ele>
        <time>2015-06-28T06:38:46Z</time>
      </trkpt>
      <trkpt lat="42.33689" lon="8.89765">
        <ele>1430</ele>
        <time>2015-06-28T06:39:20Z</time>
      </trkpt>
      <trkpt lat="42.33694" lon="8.89773">
        <ele>1431</ele>
        <time>2015-06-28T06:39:29Z</time>
      </trkpt>
      <trkpt lat="42.33696" lon="8.89774">
        <ele>1431.2</ele>
        <time>2015-06-28T06:39:32Z</time>
      </trkpt>
      <trkpt lat="42.33698" lon="8.89791">
        <ele>1430.6</ele>
        <time>2015-06-28T06:40:31Z</time>
      </trkpt>
      <trkpt lat="42.33702" lon="8.89795">
        <ele>1430.2</ele>
        <time>2015-06-28T06:40:43Z</time>
      </trkpt>
      <trkpt lat="42.33702" lon="8.89798">
        <ele>1429.6</ele>
        <time>2015-06-28T06:40:49Z</time>
      </trkpt>
      <trkpt lat="42.33705" lon="8.89801">
        <ele>1428.2</ele>
        <time>2015-06-28T06:40:57Z</time>
      </trkpt>
      <trkpt lat="42.33708" lon="8.89802">
        <ele>1427</ele>
        <time>2015-06-28T06:41:20Z</time>
      </trkpt>
      <trkpt lat="42.33708" lon="8.89805">
        <ele>1426.8</ele>
        <time>2015-06-28T06:41:26Z</time>
      </trkpt>
      <trkpt lat="42.33712" lon="8.89806">
        <ele>1426</ele>
        <time>2015-06-28T06:41:31Z</time>
      </trkpt>
      <trkpt lat="42.33719" lon="8.89812">
        <ele>1424.2</ele>
        <time>2015-06-28T06:41:42Z</time>
      </trkpt>
      <trkpt lat="42.33721" lon="8.89819">
        <ele>1423.6</ele>
        <time>2015-06-28T06:41:48Z</time>
      </trkpt>
      <trkpt lat="42.3372" lon="8.89822">
        <ele>1423.8</ele>
        <time>2015-06-28T06:41:50Z</time>
      </trkpt>
      <trkpt lat="42.33721" lon="8.89826">
        <ele>1422.8</ele>
        <time>2015-06-28T06:41:53Z</time>
      </trkpt>
      <trkpt lat="42.33723" lon="8.89835">
        <ele>1421</ele>
        <time>2015-06-28T06:42:02Z</time>
      </trkpt>
      <trkpt lat="42.33741" lon="8.89866">
        <ele>1421.2</ele>
        <time>2015-06-28T06:42:44Z</time>
      </trkpt>
      <trkpt lat="42.33754" lon="8.89888">
        <ele>1422.8</ele>
        <time>2015-06-28T06:43:08Z</time>
      </trkpt>
      <trkpt lat="42.33757" lon="8.8989">
        <ele>1422.8</ele>
        <time>2015-06-28T06:43:12Z</time>
      </trkpt>
      <trkpt lat="42.33762" lon="8.89896">
        <ele>1423.2</ele>
        <time>2015-06-28T06:43:20Z</time>
      </trkpt>
      <trkpt lat="42.33762" lon="8.89904">
        <ele>1423</ele>
        <time>2015-06-28T06:43:28Z</time>
      </trkpt>
      <trkpt lat="42.33764" lon="8.89908">
        <ele>1422.6</ele>
        <time>2015-06-28T06:43:33Z</time>
      </trkpt>
      <trkpt lat="42.33765" lon="8.8991">
        <ele>1422.4</ele>
        <time>2015-06-28T06:43:35Z</time>
      </trkpt>
      <trkpt lat="42.33775" lon="8.89936">
        <ele>1422.2</ele>
        <time>2015-06-28T06:43:56Z</time>
      </trkpt>
      <trkpt lat="42.33778" lon="8.89941">
        <ele>1421.6</ele>
        <time>2015-06-28T06:44:01Z</time>
      </trkpt>
      <trkpt lat="42.33781" lon="8.89948">
        <ele>1420</ele>
        <time>2015-06-28T06:44:08Z</time>
      </trkpt>
      <trkpt lat="42.33784" lon="8.89966">
        <ele>1418.6</ele>
        <time>2015-06-28T06:44:20Z</time>
      </trkpt>
      <trkpt lat="42.33801" lon="8.90002">
        <ele>1418.6</ele>
        <time>2015-06-28T06:44:48Z</time>
      </trkpt>
      <trkpt lat="42.33806" lon="8.90018">
        <ele>1420</ele>
        <time>2015-06-28T06:45:04Z</time>
      </trkpt>
      <trkpt lat="42.33808" lon="8.9002">
        <ele>1420.2</ele>
        <time>2015-06-28T06:45:07Z</time>
      </trkpt>
      <trkpt lat="42.33814" lon="8.90043">
        <ele>1421.2</ele>
        <time>2015-06-28T06:45:30Z</time>
      </trkpt>
      <trkpt lat="42.33817" lon="8.90072">
        <ele>1420.8</ele>
        <time>2015-06-28T06:45:49Z</time>
      </trkpt>
      <trkpt lat="42.33817" lon="8.90078">
        <ele>1421.2</ele>
        <time>2015-06-28T06:45:55Z</time>
      </trkpt>
      <trkpt lat="42.33818" lon="8.90088">
        <ele>1421.2</ele>
        <time>2015-06-28T06:46:04Z</time>
      </trkpt>
      <trkpt lat="42.33832" lon="8.90144">
        <ele>1420.6</ele>
        <time>2015-06-28T06:46:51Z</time>
      </trkpt>
      <trkpt lat="42.33846" lon="8.90165">
        <ele>1419.6</ele>
        <time>2015-06-28T06:47:11Z</time>
      </trkpt>
      <trkpt lat="42.33848" lon="8.90181">
        <ele>1419</ele>
        <time>2015-06-28T06:47:25Z</time>
      </trkpt>
      <trkpt lat="42.33851" lon="8.90196">
        <ele>1418</ele>
        <time>2015-06-28T06:47:33Z</time>
      </trkpt>
      <trkpt lat="42.33853" lon="8.90202">
        <ele>1417.8</ele>
        <time>2015-06-28T06:47:38Z</time>
      </trkpt>
      <trkpt lat="42.33855" lon="8.90204">
        <ele>1417.8</ele>
        <time>2015-06-28T06:47:41Z</time>
      </trkpt>
      <trkpt lat="42.33856" lon="8.90207">
        <ele>1418.2</ele>
        <time>2015-06-28T06:47:44Z</time>
      </trkpt>
      <trkpt lat="42.3386" lon="8.90212">
        <ele>1419</ele>
        <time>2015-06-28T06:47:49Z</time>
      </trkpt>
      <trkpt lat="42.33861" lon="8.90214">
        <ele>1419.2</ele>
        <time>2015-06-28T06:47:52Z</time>
      </trkpt>
      <trkpt lat="42.33869" lon="8.90221">
        <ele>1419.2</ele>
        <time>2015-06-28T06:48:02Z</time>
      </trkpt>
      <trkpt lat="42.33871" lon="8.90221">
        <ele>1419.2</ele>
        <time>2015-06-28T06:48:04Z</time>
      </trkpt>
      <trkpt lat="42.33873" lon="8.90223">
        <ele>1419</ele>
        <time>2015-06-28T06:48:09Z</time>
      </trkpt>
      <trkpt lat="42.33878" lon="8.90227">
        <ele>1418.4</ele>
        <time>2015-06-28T06:48:14Z</time>
      </trkpt>
      <trkpt lat="42.33879" lon="8.90227">
        <ele>1417.8</ele>
        <time>2015-06-28T06:48:17Z</time>
      </trkpt>
      <trkpt lat="42.33884" lon="8.90231">
        <ele>1417.2</ele>
        <time>2015-06-28T06:48:26Z</time>
      </trkpt>
      <trkpt lat="42.3389" lon="8.90233">
        <ele>1416</ele>
        <time>2015-06-28T06:48:33Z</time>
      </trkpt>
      <trkpt lat="42.33902" lon="8.90236">
        <ele>1414.6</ele>
        <time>2015-06-28T06:48:41Z</time>
      </trkpt>
      <trkpt lat="42.33905" lon="8.90236">
        <ele>1414.2</ele>
        <time>2015-06-28T06:48:42Z</time>
      </trkpt>
      <trkpt lat="42.33908" lon="8.90236">
        <ele>1414.2</ele>
        <time>2015-06-28T06:48:45Z</time>
      </trkpt>
      <trkpt lat="42.33913" lon="8.90234">
        <ele>1413.6</ele>
        <time>2015-06-28T06:48:50Z</time>
      </trkpt>
      <trkpt lat="42.33914" lon="8.90234">
        <ele>1413.6</ele>
        <time>2015-06-28T06:48:51Z</time>
      </trkpt>
      <trkpt lat="42.33923" lon="8.90229">
        <ele>1412.2</ele>
        <time>2015-06-28T06:49:02Z</time>
      </trkpt>
      <trkpt lat="42.33929" lon="8.90229">
        <ele>1411.8</ele>
        <time>2015-06-28T06:49:09Z</time>
      </trkpt>
      <trkpt lat="42.33932" lon="8.90229">
        <ele>1411.8</ele>
        <time>2015-06-28T06:49:11Z</time>
      </trkpt>
      <trkpt lat="42.33951" lon="8.90222">
        <ele>1411</ele>
        <time>2015-06-28T06:49:25Z</time>
      </trkpt>
      <trkpt lat="42.33953" lon="8.9022">
        <ele>1411.4</ele>
        <time>2015-06-28T06:49:28Z</time>
      </trkpt>
      <trkpt lat="42.33955" lon="8.9022">
        <ele>1411.6</ele>
        <time>2015-06-28T06:49:30Z</time>
      </trkpt>
      <trkpt lat="42.33958" lon="8.90219">
        <ele>1411.4</ele>
        <time>2015-06-28T06:49:32Z</time>
      </trkpt>
      <trkpt lat="42.3396" lon="8.90217">
        <ele>1411.6</ele>
        <time>2015-06-28T06:49:34Z</time>
      </trkpt>
      <trkpt lat="42.33975" lon="8.90211">
        <ele>1411.4</ele>
        <time>2015-06-28T06:49:49Z</time>
      </trkpt>
      <trkpt lat="42.33985" lon="8.9021">
        <ele>1411.4</ele>
        <time>2015-06-28T06:49:58Z</time>
      </trkpt>
      <trkpt lat="42.33986" lon="8.90211">
        <ele>1411.2</ele>
        <time>2015-06-28T06:50:01Z</time>
      </trkpt>
      <trkpt lat="42.33989" lon="8.90212">
        <ele>1411</ele>
        <time>2015-06-28T06:50:06Z</time>
      </trkpt>
      <trkpt lat="42.33994" lon="8.90212">
        <ele>1409.8</ele>
        <time>2015-06-28T06:50:12Z</time>
      </trkpt>
      <trkpt lat="42.33995" lon="8.90213">
        <ele>1409.2</ele>
        <time>2015-06-28T06:50:15Z</time>
      </trkpt>
      <trkpt lat="42.33996" lon="8.90213">
        <ele>1409</ele>
        <time>2015-06-28T06:50:16Z</time>
      </trkpt>
      <trkpt lat="42.34" lon="8.90214">
        <ele>1408.4</ele>
        <time>2015-06-28T06:50:19Z</time>
      </trkpt>
      <trkpt lat="42.34004" lon="8.90214">
        <ele>1407.6</ele>
        <time>2015-06-28T06:50:22Z</time>
      </trkpt>
      <trkpt lat="42.34007" lon="8.90215">
        <ele>1407.4</ele>
        <time>2015-06-28T06:50:25Z</time>
      </trkpt>
      <trkpt lat="42.34009" lon="8.90215">
        <ele>1407</ele>
        <time>2015-06-28T06:50:27Z</time>
      </trkpt>
      <trkpt lat="42.34013" lon="8.90216">
        <ele>1406.6</ele>
        <time>2015-06-28T06:50:31Z</time>
      </trkpt>
      <trkpt lat="42.34014" lon="8.90216">
        <ele>1406.6</ele>
        <time>2015-06-28T06:50:32Z</time>
      </trkpt>
      <trkpt lat="42.34018" lon="8.90215">
        <ele>1406</ele>
        <time>2015-06-28T06:50:35Z</time>
      </trkpt>
      <trkpt lat="42.34019" lon="8.90215">
        <ele>1406</ele>
        <time>2015-06-28T06:50:36Z</time>
      </trkpt>
      <trkpt lat="42.3402" lon="8.90214">
        <ele>1405.8</ele>
        <time>2015-06-28T06:50:37Z</time>
      </trkpt>
      <trkpt lat="42.34022" lon="8.90214">
        <ele>1405.2</ele>
        <time>2015-06-28T06:50:39Z</time>
      </trkpt>
      <trkpt lat="42.34032" lon="8.9021">
        <ele>1404</ele>
        <time>2015-06-28T06:50:45Z</time>
      </trkpt>
      <trkpt lat="42.34032" lon="8.90209">
        <ele>1404</ele>
        <time>2015-06-28T06:50:47Z</time>
      </trkpt>
      <trkpt lat="42.34043" lon="8.90201">
        <ele>1405</ele>
        <time>2015-06-28T06:50:59Z</time>
      </trkpt>
      <trkpt lat="42.34056" lon="8.9019">
        <ele>1406.2</ele>
        <time>2015-06-28T06:51:24Z</time>
      </trkpt>
      <trkpt lat="42.34059" lon="8.9019">
        <ele>1406.2</ele>
        <time>2015-06-28T06:51:26Z</time>
      </trkpt>
      <trkpt lat="42.34061" lon="8.90188">
        <ele>1406</ele>
        <time>2015-06-28T06:51:29Z</time>
      </trkpt>
      <trkpt lat="42.34064" lon="8.90187">
        <ele>1406.2</ele>
        <time>2015-06-28T06:51:32Z</time>
      </trkpt>
      <trkpt lat="42.34068" lon="8.90189">
        <ele>1406.6</ele>
        <time>2015-06-28T06:51:35Z</time>
      </trkpt>
      <trkpt lat="42.34078" lon="8.90192">
        <ele>1407.4</ele>
        <time>2015-06-28T06:51:41Z</time>
      </trkpt>
      <trkpt lat="42.34086" lon="8.90198">
        <ele>1407.8</ele>
        <time>2015-06-28T06:51:51Z</time>
      </trkpt>
      <trkpt lat="42.34092" lon="8.90203">
        <ele>1408.6</ele>
        <time>2015-06-28T06:51:59Z</time>
      </trkpt>
      <trkpt lat="42.34096" lon="8.90197">
        <ele>1409.6</ele>
        <time>2015-06-28T06:52:08Z</time>
      </trkpt>
      <trkpt lat="42.34098" lon="8.90196">
        <ele>1411</ele>
        <time>2015-06-28T06:52:15Z</time>
      </trkpt>
      <trkpt lat="42.34101" lon="8.90198">
        <ele>1412</ele>
        <time>2015-06-28T06:52:22Z</time>
      </trkpt>
      <trkpt lat="42.34105" lon="8.90197">
        <ele>1413.2</ele>
        <time>2015-06-28T06:52:29Z</time>
      </trkpt>
      <trkpt lat="42.34109" lon="8.90195">
        <ele>1414.4</ele>
        <time>2015-06-28T06:52:36Z</time>
      </trkpt>
      <trkpt lat="42.34112" lon="8.90196">
        <ele>1415.4</ele>
        <time>2015-06-28T06:52:43Z</time>
      </trkpt>
      <trkpt lat="42.34115" lon="8.90197">
        <ele>1416.8</ele>
        <time>2015-06-28T06:52:52Z</time>
      </trkpt>
      <trkpt lat="42.34119" lon="8.90199">
        <ele>1417.6</ele>
        <time>2015-06-28T06:52:57Z</time>
      </trkpt>
      <trkpt lat="42.34121" lon="8.902">
        <ele>1418.4</ele>
        <time>2015-06-28T06:53:00Z</time>
      </trkpt>
      <trkpt lat="42.34132" lon="8.902">
        <ele>1419.4</ele>
        <time>2015-06-28T06:53:21Z</time>
      </trkpt>
      <trkpt lat="42.34138" lon="8.902">
        <ele>1418.8</ele>
        <time>2015-06-28T06:53:25Z</time>
      </trkpt>
      <trkpt lat="42.34139" lon="8.90201">
        <ele>1418.6</ele>
        <time>2015-06-28T06:53:26Z</time>
      </trkpt>
      <trkpt lat="42.34143" lon="8.90199">
        <ele>1417.4</ele>
        <time>2015-06-28T06:53:31Z</time>
      </trkpt>
      <trkpt lat="42.3415" lon="8.90195">
        <ele>1415.6</ele>
        <time>2015-06-28T06:53:43Z</time>
      </trkpt>
      <trkpt lat="42.34157" lon="8.90194">
        <ele>1415</ele>
        <time>2015-06-28T06:53:53Z</time>
      </trkpt>
      <trkpt lat="42.34158" lon="8.90196">
        <ele>1414.8</ele>
        <time>2015-06-28T06:53:57Z</time>
      </trkpt>
      <trkpt lat="42.34161" lon="8.90196">
        <ele>1413.6</ele>
        <time>2015-06-28T06:54:02Z</time>
      </trkpt>
      <trkpt lat="42.34163" lon="8.90194">
        <ele>1412.4</ele>
        <time>2015-06-28T06:54:07Z</time>
      </trkpt>
      <trkpt lat="42.34164" lon="8.90193">
        <ele>1411.2</ele>
        <time>2015-06-28T06:54:12Z</time>
      </trkpt>
      <trkpt lat="42.34164" lon="8.90191">
        <ele>1410.2</ele>
        <time>2015-06-28T06:54:17Z</time>
      </trkpt>
      <trkpt lat="42.34166" lon="8.9019">
        <ele>1409</ele>
        <time>2015-06-28T06:54:22Z</time>
      </trkpt>
      <trkpt lat="42.34171" lon="8.90187">
        <ele>1408</ele>
        <time>2015-06-28T06:54:27Z</time>
      </trkpt>
      <trkpt lat="42.34172" lon="8.90186">
        <ele>1407.8</ele>
        <time>2015-06-28T06:54:29Z</time>
      </trkpt>
      <trkpt lat="42.34174" lon="8.90184">
        <ele>1407.2</ele>
        <time>2015-06-28T06:54:32Z</time>
      </trkpt>
      <trkpt lat="42.34179" lon="8.90181">
        <ele>1405.8</ele>
        <time>2015-06-28T06:54:39Z</time>
      </trkpt>
      <trkpt lat="42.34188" lon="8.90174">
        <ele>1404.4</ele>
        <time>2015-06-28T06:54:50Z</time>
      </trkpt>
      <trkpt lat="42.3419" lon="8.90174">
        <ele>1404.2</ele>
        <time>2015-06-28T06:54:52Z</time>
      </trkpt>
      <trkpt lat="42.34224" lon="8.90143">
        <ele>1403.6</ele>
        <time>2015-06-28T06:55:31Z</time>
      </trkpt>
      <trkpt lat="42.34233" lon="8.90135">
        <ele>1403.2</ele>
        <time>2015-06-28T06:55:37Z</time>
      </trkpt>
      <trkpt lat="42.34237" lon="8.90129">
        <ele>1403.2</ele>
        <time>2015-06-28T06:55:41Z</time>
      </trkpt>
      <trkpt lat="42.34238" lon="8.90127">
        <ele>1403</ele>
        <time>2015-06-28T06:55:43Z</time>
      </trkpt>
      <trkpt lat="42.34242" lon="8.9012">
        <ele>1403.4</ele>
        <time>2015-06-28T06:55:49Z</time>
      </trkpt>
      <trkpt lat="42.34243" lon="8.90117">
        <ele>1403.6</ele>
        <time>2015-06-28T06:55:51Z</time>
      </trkpt>
      <trkpt lat="42.34243" lon="8.90116">
        <ele>1403.4</ele>
        <time>2015-06-28T06:55:53Z</time>
      </trkpt>
      <trkpt lat="42.34257" lon="8.90095">
        <ele>1403.4</ele>
        <time>2015-06-28T06:56:12Z</time>
      </trkpt>
      <trkpt lat="42.34257" lon="8.90093">
        <ele>1403.6</ele>
        <time>2015-06-28T06:56:15Z</time>
      </trkpt>
      <trkpt lat="42.34256" lon="8.90092">
        <ele>1403.8</ele>
        <time>2015-06-28T06:56:18Z</time>
      </trkpt>
      <trkpt lat="42.34259" lon="8.9009">
        <ele>1404.4</ele>
        <time>2015-06-28T06:56:23Z</time>
      </trkpt>
      <trkpt lat="42.34261" lon="8.90082">
        <ele>1405.8</ele>
        <time>2015-06-28T06:56:31Z</time>
      </trkpt>
      <trkpt lat="42.34267" lon="8.90072">
        <ele>1407</ele>
        <time>2015-06-28T06:56:40Z</time>
      </trkpt>
      <trkpt lat="42.34267" lon="8.90071">
        <ele>1407</ele>
        <time>2015-06-28T06:56:42Z</time>
      </trkpt>
      <trkpt lat="42.34272" lon="8.90061">
        <ele>1406.6</ele>
        <time>2015-06-28T06:56:56Z</time>
      </trkpt>
      <trkpt lat="42.34271" lon="8.90057">
        <ele>1405.2</ele>
        <time>2015-06-28T06:57:09Z</time>
      </trkpt>
      <trkpt lat="42.34275" lon="8.90057">
        <ele>1405</ele>
        <time>2015-06-28T06:57:14Z</time>
      </trkpt>
      <trkpt lat="42.34279" lon="8.90056">
        <ele>1404</ele>
        <time>2015-06-28T06:57:18Z</time>
      </trkpt>
      <trkpt lat="42.34286" lon="8.90052">
        <ele>1402.4</ele>
        <time>2015-06-28T06:57:25Z</time>
      </trkpt>
      <trkpt lat="42.34296" lon="8.90051">
        <ele>1400.6</ele>
        <time>2015-06-28T06:57:39Z</time>
      </trkpt>
      <trkpt lat="42.34299" lon="8.90054">
        <ele>1400.2</ele>
        <time>2015-06-28T06:57:46Z</time>
      </trkpt>
      <trkpt lat="42.34304" lon="8.90054">
        <ele>1399.8</ele>
        <time>2015-06-28T06:57:50Z</time>
      </trkpt>
      <trkpt lat="42.34308" lon="8.9005">
        <ele>1400</ele>
        <time>2015-06-28T06:58:01Z</time>
      </trkpt>
      <trkpt lat="42.34321" lon="8.90029">
        <ele>1401.4</ele>
        <time>2015-06-28T06:58:57Z</time>
      </trkpt>
      <trkpt lat="42.34339" lon="8.90038">
        <ele>1402.4</ele>
        <time>2015-06-28T06:59:28Z</time>
      </trkpt>
      <trkpt lat="42.34367" lon="8.90087">
        <ele>1402.8</ele>
        <time>2015-06-28T07:00:21Z</time>
      </trkpt>
      <trkpt lat="42.34371" lon="8.90091">
        <ele>1402.6</ele>
        <time>2015-06-28T07:00:25Z</time>
      </trkpt>
      <trkpt lat="42.34365" lon="8.901">
        <ele>1402.4</ele>
        <time>2015-06-28T07:01:07Z</time>
      </trkpt>
      <trkpt lat="42.34374" lon="8.90106">
        <ele>1401.4</ele>
        <time>2015-06-28T07:01:20Z</time>
      </trkpt>
      <trkpt lat="42.34378" lon="8.90111">
        <ele>1400.6</ele>
        <time>2015-06-28T07:01:52Z</time>
      </trkpt>
      <trkpt lat="42.34374" lon="8.90117">
        <ele>1400.2</ele>
        <time>2015-06-28T07:01:59Z</time>
      </trkpt>
      <trkpt lat="42.34374" lon="8.90124">
        <ele>1399.8</ele>
        <time>2015-06-28T07:02:05Z</time>
      </trkpt>
      <trkpt lat="42.34376" lon="8.90129">
        <ele>1398.8</ele>
        <time>2015-06-28T07:02:11Z</time>
      </trkpt>
      <trkpt lat="42.34394" lon="8.90128">
        <ele>1396.8</ele>
        <time>2015-06-28T07:02:47Z</time>
      </trkpt>
      <trkpt lat="42.34395" lon="8.90128">
        <ele>1397</ele>
        <time>2015-06-28T07:02:49Z</time>
      </trkpt>
      <trkpt lat="42.34411" lon="8.90148">
        <ele>1396.8</ele>
        <time>2015-06-28T07:03:25Z</time>
      </trkpt>
      <trkpt lat="42.34419" lon="8.90194">
        <ele>1396.4</ele>
        <time>2015-06-28T07:04:08Z</time>
      </trkpt>
      <trkpt lat="42.34422" lon="8.90194">
        <ele>1397.8</ele>
        <time>2015-06-28T07:04:15Z</time>
      </trkpt>
      <trkpt lat="42.34424" lon="8.90198">
        <ele>1398.8</ele>
        <time>2015-06-28T07:04:22Z</time>
      </trkpt>
      <trkpt lat="42.34427" lon="8.90206">
        <ele>1400</ele>
        <time>2015-06-28T07:04:30Z</time>
      </trkpt>
      <trkpt lat="42.3443" lon="8.90222">
        <ele>1401.2</ele>
        <time>2015-06-28T07:04:44Z</time>
      </trkpt>
      <trkpt lat="42.34438" lon="8.90247">
        <ele>1402</ele>
        <time>2015-06-28T07:05:07Z</time>
      </trkpt>
      <trkpt lat="42.34441" lon="8.9025">
        <ele>1402.4</ele>
        <time>2015-06-28T07:05:12Z</time>
      </trkpt>
      <trkpt lat="42.34447" lon="8.90272">
        <ele>1403.8</ele>
        <time>2015-06-28T07:05:33Z</time>
      </trkpt>
      <trkpt lat="42.34451" lon="8.90282">
        <ele>1404.8</ele>
        <time>2015-06-28T07:05:42Z</time>
      </trkpt>
      <trkpt lat="42.3446" lon="8.90306">
        <ele>1406.2</ele>
        <time>2015-06-28T07:06:07Z</time>
      </trkpt>
      <trkpt lat="42.34465" lon="8.90315">
        <ele>1407</ele>
        <time>2015-06-28T07:06:17Z</time>
      </trkpt>
      <trkpt lat="42.34471" lon="8.90324">
        <ele>1408</ele>
        <time>2015-06-28T07:06:28Z</time>
      </trkpt>
      <trkpt lat="42.3448" lon="8.9033">
        <ele>1409.6</ele>
        <time>2015-06-28T07:06:42Z</time>
      </trkpt>
      <trkpt lat="42.34486" lon="8.90346">
        <ele>1411</ele>
        <time>2015-06-28T07:06:59Z</time>
      </trkpt>
      <trkpt lat="42.34496" lon="8.90357">
        <ele>1411.6</ele>
        <time>2015-06-28T07:07:15Z</time>
      </trkpt>
      <trkpt lat="42.345" lon="8.90359">
        <ele>1412.2</ele>
        <time>2015-06-28T07:07:20Z</time>
      </trkpt>
      <trkpt lat="42.34509" lon="8.90365">
        <ele>1414.2</ele>
        <time>2015-06-28T07:07:30Z</time>
      </trkpt>
      <trkpt lat="42.3452" lon="8.90365">
        <ele>1414.8</ele>
        <time>2015-06-28T07:07:47Z</time>
      </trkpt>
      <trkpt lat="42.34541" lon="8.90371">
        <ele>1414.4</ele>
        <time>2015-06-28T07:08:18Z</time>
      </trkpt>
      <trkpt lat="42.34546" lon="8.90371">
        <ele>1414.2</ele>
        <time>2015-06-28T07:08:22Z</time>
      </trkpt>
      <trkpt lat="42.34548" lon="8.90371">
        <ele>1414.4</ele>
        <time>2015-06-28T07:08:24Z</time>
      </trkpt>
      <trkpt lat="42.34552" lon="8.90372">
        <ele>1414.6</ele>
        <time>2015-06-28T07:08:29Z</time>
      </trkpt>
      <trkpt lat="42.34557" lon="8.90374">
        <ele>1415.2</ele>
        <time>2015-06-28T07:08:33Z</time>
      </trkpt>
      <trkpt lat="42.34571" lon="8.90381">
        <ele>1416</ele>
        <time>2015-06-28T07:08:46Z</time>
      </trkpt>
      <trkpt lat="42.34573" lon="8.90383">
        <ele>1415.6</ele>
        <time>2015-06-28T07:08:50Z</time>
      </trkpt>
      <trkpt lat="42.34576" lon="8.90389">
        <ele>1415</ele>
        <time>2015-06-28T07:08:54Z</time>
      </trkpt>
      <trkpt lat="42.34581" lon="8.90398">
        <ele>1414</ele>
        <time>2015-06-28T07:09:01Z</time>
      </trkpt>
      <trkpt lat="42.34586" lon="8.90401">
        <ele>1413</ele>
        <time>2015-06-28T07:09:07Z</time>
      </trkpt>
      <trkpt lat="42.34595" lon="8.90404">
        <ele>1413.6</ele>
        <time>2015-06-28T07:09:21Z</time>
      </trkpt>
      <trkpt lat="42.34598" lon="8.90403">
        <ele>1414.2</ele>
        <time>2015-06-28T07:09:28Z</time>
      </trkpt>
      <trkpt lat="42.34601" lon="8.90402">
        <ele>1415.2</ele>
        <time>2015-06-28T07:09:34Z</time>
      </trkpt>
      <trkpt lat="42.3461" lon="8.90406">
        <ele>1416.8</ele>
        <time>2015-06-28T07:09:45Z</time>
      </trkpt>
      <trkpt lat="42.34623" lon="8.90444">
        <ele>1418.2</ele>
        <time>2015-06-28T07:10:24Z</time>
      </trkpt>
      <trkpt lat="42.34624" lon="8.90445">
        <ele>1418</ele>
        <time>2015-06-28T07:10:26Z</time>
      </trkpt>
      <trkpt lat="42.34635" lon="8.90458">
        <ele>1418.2</ele>
        <time>2015-06-28T07:10:41Z</time>
      </trkpt>
      <trkpt lat="42.34636" lon="8.90458">
        <ele>1418.2</ele>
        <time>2015-06-28T07:10:42Z</time>
      </trkpt>
      <trkpt lat="42.34637" lon="8.90459">
        <ele>1418.4</ele>
        <time>2015-06-28T07:10:44Z</time>
      </trkpt>
      <trkpt lat="42.3464" lon="8.90463">
        <ele>1419.2</ele>
        <time>2015-06-28T07:10:51Z</time>
      </trkpt>
      <trkpt lat="42.34643" lon="8.90465">
        <ele>1420</ele>
        <time>2015-06-28T07:10:57Z</time>
      </trkpt>
      <trkpt lat="42.34648" lon="8.90471">
        <ele>1421.6</ele>
        <time>2015-06-28T07:11:06Z</time>
      </trkpt>
      <trkpt lat="42.34651" lon="8.90474">
        <ele>1422</ele>
        <time>2015-06-28T07:11:10Z</time>
      </trkpt>
      <trkpt lat="42.34652" lon="8.90476">
        <ele>1422.2</ele>
        <time>2015-06-28T07:11:12Z</time>
      </trkpt>
      <trkpt lat="42.34653" lon="8.90483">
        <ele>1424</ele>
        <time>2015-06-28T07:11:22Z</time>
      </trkpt>
      <trkpt lat="42.34659" lon="8.90487">
        <ele>1424.8</ele>
        <time>2015-06-28T07:11:32Z</time>
      </trkpt>
      <trkpt lat="42.34668" lon="8.90497">
        <ele>1426.2</ele>
        <time>2015-06-28T07:11:49Z</time>
      </trkpt>
      <trkpt lat="42.34669" lon="8.90498">
        <ele>1426.4</ele>
        <time>2015-06-28T07:11:51Z</time>
      </trkpt>
      <trkpt lat="42.34673" lon="8.90498">
        <ele>1427</ele>
        <time>2015-06-28T07:11:58Z</time>
      </trkpt>
      <trkpt lat="42.34677" lon="8.90499">
        <ele>1428.4</ele>
        <time>2015-06-28T07:12:07Z</time>
      </trkpt>
      <trkpt lat="42.3468" lon="8.905">
        <ele>1428.8</ele>
        <time>2015-06-28T07:12:10Z</time>
      </trkpt>
      <trkpt lat="42.34682" lon="8.90502">
        <ele>1429</ele>
        <time>2015-06-28T07:12:14Z</time>
      </trkpt>
      <trkpt lat="42.34688" lon="8.90506">
        <ele>1430.4</ele>
        <time>2015-06-28T07:12:21Z</time>
      </trkpt>
      <trkpt lat="42.34689" lon="8.90506">
        <ele>1430.6</ele>
        <time>2015-06-28T07:12:23Z</time>
      </trkpt>
      <trkpt lat="42.34693" lon="8.90508">
        <ele>1431.4</ele>
        <time>2015-06-28T07:12:30Z</time>
      </trkpt>
      <trkpt lat="42.34698" lon="8.90512">
        <ele>1432.6</ele>
        <time>2015-06-28T07:12:38Z</time>
      </trkpt>
      <trkpt lat="42.34708" lon="8.90516">
        <ele>1434</ele>
        <time>2015-06-28T07:12:51Z</time>
      </trkpt>
      <trkpt lat="42.34719" lon="8.90524">
        <ele>1434.8</ele>
        <time>2015-06-28T07:13:07Z</time>
      </trkpt>
      <trkpt lat="42.34726" lon="8.90528">
        <ele>1435</ele>
        <time>2015-06-28T07:13:15Z</time>
      </trkpt>
      <trkpt lat="42.34745" lon="8.90541">
        <ele>1436</ele>
        <time>2015-06-28T07:13:35Z</time>
      </trkpt>
      <trkpt lat="42.34751" lon="8.90544">
        <ele>1437</ele>
        <time>2015-06-28T07:13:43Z</time>
      </trkpt>
      <trkpt lat="42.34755" lon="8.90547">
        <ele>1438.2</ele>
        <time>2015-06-28T07:13:51Z</time>
      </trkpt>
      <trkpt lat="42.34755" lon="8.90549">
        <ele>1439</ele>
        <time>2015-06-28T07:13:58Z</time>
      </trkpt>
      <trkpt lat="42.34767" lon="8.90554">
        <ele>1440.8</ele>
        <time>2015-06-28T07:14:14Z</time>
      </trkpt>
      <trkpt lat="42.34783" lon="8.90571">
        <ele>1441.2</ele>
        <time>2015-06-28T07:14:40Z</time>
      </trkpt>
      <trkpt lat="42.34798" lon="8.90598">
        <ele>1441.8</ele>
        <time>2015-06-28T07:15:09Z</time>
      </trkpt>
      <trkpt lat="42.34802" lon="8.90605">
        <ele>1439.6</ele>
        <time>2015-06-28T07:15:19Z</time>
      </trkpt>
      <trkpt lat="42.34803" lon="8.9061">
        <ele>1439.2</ele>
        <time>2015-06-28T07:15:26Z</time>
      </trkpt>
      <trkpt lat="42.34807" lon="8.90615">
        <ele>1438.2</ele>
        <time>2015-06-28T07:15:33Z</time>
      </trkpt>
      <trkpt lat="42.34814" lon="8.90623">
        <ele>1437</ele>
        <time>2015-06-28T07:15:48Z</time>
      </trkpt>
      <trkpt lat="42.34817" lon="8.90627">
        <ele>1436.4</ele>
        <time>2015-06-28T07:15:58Z</time>
      </trkpt>
      <trkpt lat="42.34825" lon="8.90633">
        <ele>1435.6</ele>
        <time>2015-06-28T07:16:11Z</time>
      </trkpt>
      <trkpt lat="42.34833" lon="8.90637">
        <ele>1434.6</ele>
        <time>2015-06-28T07:16:27Z</time>
      </trkpt>
      <trkpt lat="42.3485" lon="8.9064">
        <ele>1433.4</ele>
        <time>2015-06-28T07:16:54Z</time>
      </trkpt>
      <trkpt lat="42.34852" lon="8.9064">
        <ele>1433.8</ele>
        <time>2015-06-28T07:16:58Z</time>
      </trkpt>
      <trkpt lat="42.34864" lon="8.90639">
        <ele>1435.8</ele>
        <time>2015-06-28T07:17:15Z</time>
      </trkpt>
      <trkpt lat="42.34875" lon="8.9064">
        <ele>1435.6</ele>
        <time>2015-06-28T07:17:26Z</time>
      </trkpt>
      <trkpt lat="42.34901" lon="8.90642">
        <ele>1434.6</ele>
        <time>2015-06-28T07:18:05Z</time>
      </trkpt>
      <trkpt lat="42.34908" lon="8.90643">
        <ele>1434.6</ele>
        <time>2015-06-28T07:18:12Z</time>
      </trkpt>
      <trkpt lat="42.34923" lon="8.90647">
        <ele>1433.4</ele>
        <time>2015-06-28T07:18:27Z</time>
      </trkpt>
      <trkpt lat="42.34928" lon="8.9065">
        <ele>1432.2</ele>
        <time>2015-06-28T07:18:39Z</time>
      </trkpt>
      <trkpt lat="42.34934" lon="8.90653">
        <ele>1431.4</ele>
        <time>2015-06-28T07:18:52Z</time>
      </trkpt>
      <trkpt lat="42.34935" lon="8.90653">
        <ele>1430.8</ele>
        <time>2015-06-28T07:18:58Z</time>
      </trkpt>
      <trkpt lat="42.34978" lon="8.90674">
        <ele>1429.4</ele>
        <time>2015-06-28T07:19:39Z</time>
      </trkpt>
      <trkpt lat="42.35011" lon="8.90664">
        <ele>1430</ele>
        <time>2015-06-28T07:20:39Z</time>
      </trkpt>
      <trkpt lat="42.35012" lon="8.90662">
        <ele>1430.2</ele>
        <time>2015-06-28T07:20:42Z</time>
      </trkpt>
      <trkpt lat="42.35014" lon="8.90658">
        <ele>1430.8</ele>
        <time>2015-06-28T07:20:50Z</time>
      </trkpt>
      <trkpt lat="42.35018" lon="8.90658">
        <ele>1431.6</ele>
        <time>2015-06-28T07:20:56Z</time>
      </trkpt>
      <trkpt lat="42.35027" lon="8.9066">
        <ele>1432.8</ele>
        <time>2015-06-28T07:21:07Z</time>
      </trkpt>
      <trkpt lat="42.35034" lon="8.90662">
        <ele>1433</ele>
        <time>2015-06-28T07:21:15Z</time>
      </trkpt>
      <trkpt lat="42.35034" lon="8.90662">
        <ele>1433</ele>
        <time>2015-06-28T07:21:16Z</time>
      </trkpt>
      <trkpt lat="42.35044" lon="8.90659">
        <ele>1434.2</ele>
        <time>2015-06-28T07:21:27Z</time>
      </trkpt>
      <trkpt lat="42.35047" lon="8.90658">
        <ele>1434.8</ele>
        <time>2015-06-28T07:21:30Z</time>
      </trkpt>
      <trkpt lat="42.35049" lon="8.90659">
        <ele>1434.8</ele>
        <time>2015-06-28T07:21:32Z</time>
      </trkpt>
      <trkpt lat="42.35064" lon="8.90661">
        <ele>1435.2</ele>
        <time>2015-06-28T07:21:48Z</time>
      </trkpt>
      <trkpt lat="42.35069" lon="8.90665">
        <ele>1436.4</ele>
        <time>2015-06-28T07:21:59Z</time>
      </trkpt>
      <trkpt lat="42.35076" lon="8.90665">
        <ele>1437.4</ele>
        <time>2015-06-28T07:22:09Z</time>
      </trkpt>
      <trkpt lat="42.35086" lon="8.90669">
        <ele>1438.8</ele>
        <time>2015-06-28T07:22:22Z</time>
      </trkpt>
      <trkpt lat="42.35088" lon="8.9067">
        <ele>1439.4</ele>
        <time>2015-06-28T07:22:32Z</time>
      </trkpt>
      <trkpt lat="42.35094" lon="8.90677">
        <ele>1440</ele>
        <time>2015-06-28T07:22:41Z</time>
      </trkpt>
      <trkpt lat="42.35101" lon="8.90679">
        <ele>1440.4</ele>
        <time>2015-06-28T07:22:54Z</time>
      </trkpt>
      <trkpt lat="42.35114" lon="8.9069">
        <ele>1440.6</ele>
        <time>2015-06-28T07:23:21Z</time>
      </trkpt>
      <trkpt lat="42.35119" lon="8.90693">
        <ele>1440</ele>
        <time>2015-06-28T07:23:28Z</time>
      </trkpt>
      <trkpt lat="42.35126" lon="8.90702">
        <ele>1439</ele>
        <time>2015-06-28T07:23:44Z</time>
      </trkpt>
      <trkpt lat="42.35138" lon="8.90709">
        <ele>1437.6</ele>
        <time>2015-06-28T07:23:59Z</time>
      </trkpt>
      <trkpt lat="42.35139" lon="8.9071">
        <ele>1437.4</ele>
        <time>2015-06-28T07:24:00Z</time>
      </trkpt>
      <trkpt lat="42.35143" lon="8.90713">
        <ele>1437</ele>
        <time>2015-06-28T07:24:06Z</time>
      </trkpt>
      <trkpt lat="42.35152" lon="8.90716">
        <ele>1436.2</ele>
        <time>2015-06-28T07:24:21Z</time>
      </trkpt>
      <trkpt lat="42.35158" lon="8.90716">
        <ele>1437.6</ele>
        <time>2015-06-28T07:24:33Z</time>
      </trkpt>
      <trkpt lat="42.35163" lon="8.90718">
        <ele>1438.6</ele>
        <time>2015-06-28T07:24:43Z</time>
      </trkpt>
      <trkpt lat="42.35174" lon="8.90722">
        <ele>1439.6</ele>
        <time>2015-06-28T07:24:58Z</time>
      </trkpt>
      <trkpt lat="42.3518" lon="8.90719">
        <ele>1441</ele>
        <time>2015-06-28T07:25:11Z</time>
      </trkpt>
      <trkpt lat="42.35186" lon="8.90717">
        <ele>1441.6</ele>
        <time>2015-06-28T07:25:20Z</time>
      </trkpt>
      <trkpt lat="42.3519" lon="8.90716">
        <ele>1442.8</ele>
        <time>2015-06-28T07:25:28Z</time>
      </trkpt>
      <trkpt lat="42.35196" lon="8.90718">
        <ele>1443.8</ele>
        <time>2015-06-28T07:25:38Z</time>
      </trkpt>
      <trkpt lat="42.3521" lon="8.90735">
        <ele>1444.8</ele>
        <time>2015-06-28T07:26:03Z</time>
      </trkpt>
      <trkpt lat="42.3521" lon="8.90739">
        <ele>1445</ele>
        <time>2015-06-28T07:26:07Z</time>
      </trkpt>
      <trkpt lat="42.35213" lon="8.90742">
        <ele>1446.4</ele>
        <time>2015-06-28T07:26:15Z</time>
      </trkpt>
      <trkpt lat="42.35218" lon="8.90741">
        <ele>1447.4</ele>
        <time>2015-06-28T07:26:25Z</time>
      </trkpt>
      <trkpt lat="42.35222" lon="8.90737">
        <ele>1448.8</ele>
        <time>2015-06-28T07:26:37Z</time>
      </trkpt>
      <trkpt lat="42.35226" lon="8.90737">
        <ele>1449.2</ele>
        <time>2015-06-28T07:26:46Z</time>
      </trkpt>
      <trkpt lat="42.35228" lon="8.90738">
        <ele>1450.8</ele>
        <time>2015-06-28T07:26:57Z</time>
      </trkpt>
      <trkpt lat="42.35232" lon="8.90736">
        <ele>1451.8</ele>
        <time>2015-06-28T07:27:05Z</time>
      </trkpt>
      <trkpt lat="42.35239" lon="8.90736">
        <ele>1453</ele>
        <time>2015-06-28T07:27:22Z</time>
      </trkpt>
      <trkpt lat="42.35242" lon="8.90741">
        <ele>1454.2</ele>
        <time>2015-06-28T07:27:31Z</time>
      </trkpt>
      <trkpt lat="42.35246" lon="8.90742">
        <ele>1455.2</ele>
        <time>2015-06-28T07:27:39Z</time>
      </trkpt>
      <trkpt lat="42.35249" lon="8.90744">
        <ele>1456.2</ele>
        <time>2015-06-28T07:27:48Z</time>
      </trkpt>
      <trkpt lat="42.35253" lon="8.90748">
        <ele>1457.2</ele>
        <time>2015-06-28T07:27:55Z</time>
      </trkpt>
      <trkpt lat="42.35258" lon="8.90748">
        <ele>1458.6</ele>
        <time>2015-06-28T07:28:04Z</time>
      </trkpt>
      <trkpt lat="42.35263" lon="8.90748">
        <ele>1459.4</ele>
        <time>2015-06-28T07:28:12Z</time>
      </trkpt>
      <trkpt lat="42.3529" lon="8.90768">
        <ele>1461</ele>
        <time>2015-06-28T07:29:09Z</time>
      </trkpt>
      <trkpt lat="42.35288" lon="8.90774">
        <ele>1462</ele>
        <time>2015-06-28T07:29:16Z</time>
      </trkpt>
      <trkpt lat="42.35289" lon="8.9078">
        <ele>1463.4</ele>
        <time>2015-06-28T07:29:25Z</time>
      </trkpt>
      <trkpt lat="42.35292" lon="8.9079">
        <ele>1464.2</ele>
        <time>2015-06-28T07:31:31Z</time>
      </trkpt>
      <trkpt lat="42.3529" lon="8.90791">
        <ele>1464.8</ele>
        <time>2015-06-28T07:34:05Z</time>
      </trkpt>
      <trkpt lat="42.35287" lon="8.90791">
        <ele>1464.4</ele>
        <time>2015-06-28T07:35:36Z</time>
      </trkpt>
      <trkpt lat="42.35327" lon="8.90793">
        <ele>1471.8</ele>
        <time>2015-06-28T08:13:36Z</time>
      </trkpt>
      <trkpt lat="42.35336" lon="8.90797">
        <ele>1472.8</ele>
        <time>2015-06-28T08:13:57Z</time>
      </trkpt>
      <trkpt lat="42.35337" lon="8.90802">
        <ele>1473.8</ele>
        <time>2015-06-28T08:14:06Z</time>
      </trkpt>
      <trkpt lat="42.35341" lon="8.90801">
        <ele>1475.2</ele>
        <time>2015-06-28T08:14:16Z</time>
      </trkpt>
      <trkpt lat="42.35342" lon="8.90803">
        <ele>1476.2</ele>
        <time>2015-06-28T08:14:25Z</time>
      </trkpt>
      <trkpt lat="42.35342" lon="8.90808">
        <ele>1477.2</ele>
        <time>2015-06-28T08:14:34Z</time>
      </trkpt>
      <trkpt lat="42.35344" lon="8.90816">
        <ele>1478.6</ele>
        <time>2015-06-28T08:14:45Z</time>
      </trkpt>
      <trkpt lat="42.35344" lon="8.90817">
        <ele>1478.6</ele>
        <time>2015-06-28T08:14:46Z</time>
      </trkpt>
      <trkpt lat="42.35353" lon="8.9082">
        <ele>1479.8</ele>
        <time>2015-06-28T08:14:59Z</time>
      </trkpt>
      <trkpt lat="42.35357" lon="8.90821">
        <ele>1480.6</ele>
        <time>2015-06-28T08:15:09Z</time>
      </trkpt>
      <trkpt lat="42.35364" lon="8.90821">
        <ele>1482</ele>
        <time>2015-06-28T08:15:22Z</time>
      </trkpt>
      <trkpt lat="42.35371" lon="8.90821">
        <ele>1483.4</ele>
        <time>2015-06-28T08:15:34Z</time>
      </trkpt>
      <trkpt lat="42.35375" lon="8.90827">
        <ele>1484.4</ele>
        <time>2015-06-28T08:15:44Z</time>
      </trkpt>
      <trkpt lat="42.35376" lon="8.90839">
        <ele>1485.6</ele>
        <time>2015-06-28T08:15:58Z</time>
      </trkpt>
      <trkpt lat="42.35386" lon="8.90859">
        <ele>1487</ele>
        <time>2015-06-28T08:16:22Z</time>
      </trkpt>
      <trkpt lat="42.3539" lon="8.90875">
        <ele>1488</ele>
        <time>2015-06-28T08:16:54Z</time>
      </trkpt>
      <trkpt lat="42.354" lon="8.90886">
        <ele>1488.8</ele>
        <time>2015-06-28T08:17:12Z</time>
      </trkpt>
      <trkpt lat="42.35434" lon="8.90909">
        <ele>1489.6</ele>
        <time>2015-06-28T08:17:57Z</time>
      </trkpt>
      <trkpt lat="42.3546" lon="8.90939">
        <ele>1490.2</ele>
        <time>2015-06-28T08:18:41Z</time>
      </trkpt>
      <trkpt lat="42.35488" lon="8.90954">
        <ele>1492</ele>
        <time>2015-06-28T08:19:23Z</time>
      </trkpt>
      <trkpt lat="42.35491" lon="8.90955">
        <ele>1492.2</ele>
        <time>2015-06-28T08:19:29Z</time>
      </trkpt>
      <trkpt lat="42.35499" lon="8.90954">
        <ele>1493.2</ele>
        <time>2015-06-28T08:19:42Z</time>
      </trkpt>
      <trkpt lat="42.35503" lon="8.90953">
        <ele>1493.6</ele>
        <time>2015-06-28T08:19:49Z</time>
      </trkpt>
      <trkpt lat="42.35512" lon="8.90951">
        <ele>1495.6</ele>
        <time>2015-06-28T08:20:13Z</time>
      </trkpt>
      <trkpt lat="42.35518" lon="8.90958">
        <ele>1495.8</ele>
        <time>2015-06-28T08:20:25Z</time>
      </trkpt>
      <trkpt lat="42.35528" lon="8.90965">
        <ele>1497</ele>
        <time>2015-06-28T08:20:43Z</time>
      </trkpt>
      <trkpt lat="42.35533" lon="8.90963">
        <ele>1497.4</ele>
        <time>2015-06-28T08:20:50Z</time>
      </trkpt>
      <trkpt lat="42.35536" lon="8.9096">
        <ele>1498.8</ele>
        <time>2015-06-28T08:21:02Z</time>
      </trkpt>
      <trkpt lat="42.3554" lon="8.90962">
        <ele>1499.8</ele>
        <time>2015-06-28T08:21:11Z</time>
      </trkpt>
      <trkpt lat="42.35545" lon="8.90963">
        <ele>1501</ele>
        <time>2015-06-28T08:21:19Z</time>
      </trkpt>
      <trkpt lat="42.3555" lon="8.90961">
        <ele>1502.2</ele>
        <time>2015-06-28T08:21:30Z</time>
      </trkpt>
      <trkpt lat="42.35552" lon="8.90962">
        <ele>1502.6</ele>
        <time>2015-06-28T08:21:35Z</time>
      </trkpt>
      <trkpt lat="42.35554" lon="8.90963">
        <ele>1503.4</ele>
        <time>2015-06-28T08:21:40Z</time>
      </trkpt>
      <trkpt lat="42.35558" lon="8.90961">
        <ele>1504.6</ele>
        <time>2015-06-28T08:21:49Z</time>
      </trkpt>
      <trkpt lat="42.35564" lon="8.90959">
        <ele>1505.4</ele>
        <time>2015-06-28T08:21:57Z</time>
      </trkpt>
      <trkpt lat="42.35568" lon="8.90959">
        <ele>1506.6</ele>
        <time>2015-06-28T08:22:07Z</time>
      </trkpt>
      <trkpt lat="42.35575" lon="8.90963">
        <ele>1508</ele>
        <time>2015-06-28T08:22:20Z</time>
      </trkpt>
      <trkpt lat="42.35582" lon="8.90961">
        <ele>1509.2</ele>
        <time>2015-06-28T08:22:31Z</time>
      </trkpt>
      <trkpt lat="42.35588" lon="8.90959">
        <ele>1510.2</ele>
        <time>2015-06-28T08:22:41Z</time>
      </trkpt>
      <trkpt lat="42.35594" lon="8.90961">
        <ele>1511</ele>
        <time>2015-06-28T08:22:49Z</time>
      </trkpt>
      <trkpt lat="42.35601" lon="8.90962">
        <ele>1512.4</ele>
        <time>2015-06-28T08:23:01Z</time>
      </trkpt>
      <trkpt lat="42.35604" lon="8.90963">
        <ele>1513.2</ele>
        <time>2015-06-28T08:23:10Z</time>
      </trkpt>
      <trkpt lat="42.35607" lon="8.90961">
        <ele>1514.4</ele>
        <time>2015-06-28T08:23:18Z</time>
      </trkpt>
      <trkpt lat="42.35611" lon="8.90961">
        <ele>1515.4</ele>
        <time>2015-06-28T08:23:26Z</time>
      </trkpt>
      <trkpt lat="42.35614" lon="8.90959">
        <ele>1516.4</ele>
        <time>2015-06-28T08:23:35Z</time>
      </trkpt>
      <trkpt lat="42.35618" lon="8.90957">
        <ele>1517.4</ele>
        <time>2015-06-28T08:23:44Z</time>
      </trkpt>
      <trkpt lat="42.35623" lon="8.90959">
        <ele>1518.8</ele>
        <time>2015-06-28T08:23:55Z</time>
      </trkpt>
      <trkpt lat="42.35628" lon="8.90958">
        <ele>1520</ele>
        <time>2015-06-28T08:24:09Z</time>
      </trkpt>
      <trkpt lat="42.35633" lon="8.90961">
        <ele>1520.8</ele>
        <time>2015-06-28T08:24:18Z</time>
      </trkpt>
      <trkpt lat="42.35637" lon="8.90964">
        <ele>1521.8</ele>
        <time>2015-06-28T08:24:28Z</time>
      </trkpt>
      <trkpt lat="42.35641" lon="8.90965">
        <ele>1522.8</ele>
        <time>2015-06-28T08:24:35Z</time>
      </trkpt>
      <trkpt lat="42.35656" lon="8.90963">
        <ele>1524.2</ele>
        <time>2015-06-28T08:25:01Z</time>
      </trkpt>
      <trkpt lat="42.35661" lon="8.90958">
        <ele>1525</ele>
        <time>2015-06-28T08:25:11Z</time>
      </trkpt>
      <trkpt lat="42.35665" lon="8.90957">
        <ele>1526</ele>
        <time>2015-06-28T08:25:20Z</time>
      </trkpt>
      <trkpt lat="42.3567" lon="8.90957">
        <ele>1527.6</ele>
        <time>2015-06-28T08:25:47Z</time>
      </trkpt>
      <trkpt lat="42.35683" lon="8.90954">
        <ele>1527.8</ele>
        <time>2015-06-28T08:26:01Z</time>
      </trkpt>
      <trkpt lat="42.3569" lon="8.9095">
        <ele>1528.2</ele>
        <time>2015-06-28T08:26:10Z</time>
      </trkpt>
      <trkpt lat="42.35698" lon="8.90945">
        <ele>1529.4</ele>
        <time>2015-06-28T08:26:21Z</time>
      </trkpt>
      <trkpt lat="42.35738" lon="8.9096">
        <ele>1530.4</ele>
        <time>2015-06-28T08:27:18Z</time>
      </trkpt>
      <trkpt lat="42.35739" lon="8.9096">
        <ele>1530.6</ele>
        <time>2015-06-28T08:27:19Z</time>
      </trkpt>
      <trkpt lat="42.35742" lon="8.90964">
        <ele>1531</ele>
        <time>2015-06-28T08:27:25Z</time>
      </trkpt>
      <trkpt lat="42.35748" lon="8.90972">
        <ele>1532.8</ele>
        <time>2015-06-28T08:27:34Z</time>
      </trkpt>
      <trkpt lat="42.35753" lon="8.90969">
        <ele>1533.6</ele>
        <time>2015-06-28T08:27:45Z</time>
      </trkpt>
      <trkpt lat="42.35755" lon="8.90971">
        <ele>1534.6</ele>
        <time>2015-06-28T08:27:52Z</time>
      </trkpt>
      <trkpt lat="42.35758" lon="8.90972">
        <ele>1535.8</ele>
        <time>2015-06-28T08:27:59Z</time>
      </trkpt>
      <trkpt lat="42.35766" lon="8.90975">
        <ele>1537.2</ele>
        <time>2015-06-28T08:28:14Z</time>
      </trkpt>
      <trkpt lat="42.35776" lon="8.90977">
        <ele>1538.2</ele>
        <time>2015-06-28T08:28:27Z</time>
      </trkpt>
      <trkpt lat="42.35781" lon="8.90969">
        <ele>1539.6</ele>
        <time>2015-06-28T08:28:40Z</time>
      </trkpt>
      <trkpt lat="42.35788" lon="8.90971">
        <ele>1540.4</ele>
        <time>2015-06-28T08:28:50Z</time>
      </trkpt>
      <trkpt lat="42.35795" lon="8.90979">
        <ele>1541.4</ele>
        <time>2015-06-28T08:29:03Z</time>
      </trkpt>
      <trkpt lat="42.35798" lon="8.9098">
        <ele>1541.6</ele>
        <time>2015-06-28T08:29:09Z</time>
      </trkpt>
      <trkpt lat="42.35806" lon="8.90981">
        <ele>1542.6</ele>
        <time>2015-06-28T08:29:19Z</time>
      </trkpt>
      <trkpt lat="42.35812" lon="8.90976">
        <ele>1544.2</ele>
        <time>2015-06-28T08:29:34Z</time>
      </trkpt>
      <trkpt lat="42.35816" lon="8.9097">
        <ele>1545.2</ele>
        <time>2015-06-28T08:29:44Z</time>
      </trkpt>
      <trkpt lat="42.35821" lon="8.90968">
        <ele>1546</ele>
        <time>2015-06-28T08:29:54Z</time>
      </trkpt>
      <trkpt lat="42.35828" lon="8.90964">
        <ele>1547</ele>
        <time>2015-06-28T08:30:05Z</time>
      </trkpt>
      <trkpt lat="42.35835" lon="8.90963">
        <ele>1548.6</ele>
        <time>2015-06-28T08:30:17Z</time>
      </trkpt>
      <trkpt lat="42.35838" lon="8.90966">
        <ele>1549.4</ele>
        <time>2015-06-28T08:30:25Z</time>
      </trkpt>
      <trkpt lat="42.35842" lon="8.9097">
        <ele>1550.4</ele>
        <time>2015-06-28T08:30:34Z</time>
      </trkpt>
      <trkpt lat="42.35847" lon="8.90973">
        <ele>1552</ele>
        <time>2015-06-28T08:30:46Z</time>
      </trkpt>
      <trkpt lat="42.35855" lon="8.90973">
        <ele>1553.2</ele>
        <time>2015-06-28T08:31:00Z</time>
      </trkpt>
      <trkpt lat="42.3586" lon="8.90978">
        <ele>1554.4</ele>
        <time>2015-06-28T08:31:14Z</time>
      </trkpt>
      <trkpt lat="42.35865" lon="8.90979">
        <ele>1555.4</ele>
        <time>2015-06-28T08:31:24Z</time>
      </trkpt>
      <trkpt lat="42.35867" lon="8.9098">
        <ele>1556.6</ele>
        <time>2015-06-28T08:31:34Z</time>
      </trkpt>
      <trkpt lat="42.35871" lon="8.90981">
        <ele>1557.6</ele>
        <time>2015-06-28T08:31:44Z</time>
      </trkpt>
      <trkpt lat="42.35874" lon="8.90981">
        <ele>1558.8</ele>
        <time>2015-06-28T08:31:53Z</time>
      </trkpt>
      <trkpt lat="42.35875" lon="8.90981">
        <ele>1560</ele>
        <time>2015-06-28T08:32:01Z</time>
      </trkpt>
      <trkpt lat="42.3588" lon="8.90977">
        <ele>1561.8</ele>
        <time>2015-06-28T08:32:18Z</time>
      </trkpt>
      <trkpt lat="42.35882" lon="8.90983">
        <ele>1562.4</ele>
        <time>2015-06-28T08:32:25Z</time>
      </trkpt>
      <trkpt lat="42.35887" lon="8.90986">
        <ele>1563.8</ele>
        <time>2015-06-28T08:32:36Z</time>
      </trkpt>
      <trkpt lat="42.35891" lon="8.90988">
        <ele>1564.6</ele>
        <time>2015-06-28T08:32:44Z</time>
      </trkpt>
      <trkpt lat="42.35895" lon="8.90988">
        <ele>1566</ele>
        <time>2015-06-28T08:32:55Z</time>
      </trkpt>
      <trkpt lat="42.35898" lon="8.90989">
        <ele>1567.2</ele>
        <time>2015-06-28T08:33:05Z</time>
      </trkpt>
      <trkpt lat="42.359" lon="8.90989">
        <ele>1568.4</ele>
        <time>2015-06-28T08:33:17Z</time>
      </trkpt>
      <trkpt lat="42.35903" lon="8.9099">
        <ele>1569.2</ele>
        <time>2015-06-28T08:33:25Z</time>
      </trkpt>
      <trkpt lat="42.35909" lon="8.90988">
        <ele>1570.6</ele>
        <time>2015-06-28T08:33:36Z</time>
      </trkpt>
      <trkpt lat="42.35914" lon="8.90987">
        <ele>1571.6</ele>
        <time>2015-06-28T08:33:46Z</time>
      </trkpt>
      <trkpt lat="42.35917" lon="8.90986">
        <ele>1572.4</ele>
        <time>2015-06-28T08:33:55Z</time>
      </trkpt>
      <trkpt lat="42.35922" lon="8.90983">
        <ele>1574</ele>
        <time>2015-06-28T08:34:05Z</time>
      </trkpt>
      <trkpt lat="42.35925" lon="8.90984">
        <ele>1575.2</ele>
        <time>2015-06-28T08:34:16Z</time>
      </trkpt>
      <trkpt lat="42.35929" lon="8.90984">
        <ele>1576.4</ele>
        <time>2015-06-28T08:34:26Z</time>
      </trkpt>
      <trkpt lat="42.35932" lon="8.90983">
        <ele>1577.2</ele>
        <time>2015-06-28T08:34:35Z</time>
      </trkpt>
      <trkpt lat="42.35935" lon="8.90988">
        <ele>1578.6</ele>
        <time>2015-06-28T08:34:47Z</time>
      </trkpt>
      <trkpt lat="42.35936" lon="8.90992">
        <ele>1579.8</ele>
        <time>2015-06-28T08:34:59Z</time>
      </trkpt>
      <trkpt lat="42.35937" lon="8.90996">
        <ele>1580.8</ele>
        <time>2015-06-28T08:35:06Z</time>
      </trkpt>
      <trkpt lat="42.35939" lon="8.90997">
        <ele>1581.8</ele>
        <time>2015-06-28T08:35:15Z</time>
      </trkpt>
      <trkpt lat="42.35941" lon="8.90996">
        <ele>1582.4</ele>
        <time>2015-06-28T08:35:19Z</time>
      </trkpt>
      <trkpt lat="42.35942" lon="8.90996">
        <ele>1582.8</ele>
        <time>2015-06-28T08:35:22Z</time>
      </trkpt>
      <trkpt lat="42.35944" lon="8.90996">
        <ele>1584.6</ele>
        <time>2015-06-28T08:35:34Z</time>
      </trkpt>
      <trkpt lat="42.35946" lon="8.90994">
        <ele>1585.2</ele>
        <time>2015-06-28T08:35:43Z</time>
      </trkpt>
      <trkpt lat="42.35951" lon="8.90995">
        <ele>1587</ele>
        <time>2015-06-28T08:36:04Z</time>
      </trkpt>
      <trkpt lat="42.35952" lon="8.90993">
        <ele>1587.6</ele>
        <time>2015-06-28T08:36:11Z</time>
      </trkpt>
      <trkpt lat="42.35953" lon="8.90989">
        <ele>1588.8</ele>
        <time>2015-06-28T08:36:18Z</time>
      </trkpt>
      <trkpt lat="42.35953" lon="8.9099">
        <ele>1590.4</ele>
        <time>2015-06-28T08:36:33Z</time>
      </trkpt>
      <trkpt lat="42.35956" lon="8.90989">
        <ele>1591.6</ele>
        <time>2015-06-28T08:36:48Z</time>
      </trkpt>
      <trkpt lat="42.35957" lon="8.9099">
        <ele>1592.6</ele>
        <time>2015-06-28T08:37:02Z</time>
      </trkpt>
      <trkpt lat="42.35959" lon="8.90991">
        <ele>1593.8</ele>
        <time>2015-06-28T08:37:14Z</time>
      </trkpt>
      <trkpt lat="42.35961" lon="8.90991">
        <ele>1594.8</ele>
        <time>2015-06-28T08:37:27Z</time>
      </trkpt>
      <trkpt lat="42.35961" lon="8.90992">
        <ele>1596</ele>
        <time>2015-06-28T08:37:36Z</time>
      </trkpt>
      <trkpt lat="42.35963" lon="8.90994">
        <ele>1596.8</ele>
        <time>2015-06-28T08:37:47Z</time>
      </trkpt>
      <trkpt lat="42.35967" lon="8.90993">
        <ele>1598.4</ele>
        <time>2015-06-28T08:38:01Z</time>
      </trkpt>
      <trkpt lat="42.35972" lon="8.90991">
        <ele>1599.4</ele>
        <time>2015-06-28T08:38:10Z</time>
      </trkpt>
      <trkpt lat="42.35975" lon="8.90995">
        <ele>1600.4</ele>
        <time>2015-06-28T08:38:18Z</time>
      </trkpt>
      <trkpt lat="42.35977" lon="8.90997">
        <ele>1601.6</ele>
        <time>2015-06-28T08:38:28Z</time>
      </trkpt>
      <trkpt lat="42.35977" lon="8.90997">
        <ele>1602</ele>
        <time>2015-06-28T08:38:31Z</time>
      </trkpt>
      <trkpt lat="42.35985" lon="8.90992">
        <ele>1603</ele>
        <time>2015-06-28T08:39:06Z</time>
      </trkpt>
      <trkpt lat="42.35992" lon="8.90987">
        <ele>1604.2</ele>
        <time>2015-06-28T08:39:21Z</time>
      </trkpt>
      <trkpt lat="42.35998" lon="8.90982">
        <ele>1605.6</ele>
        <time>2015-06-28T08:39:41Z</time>
      </trkpt>
      <trkpt lat="42.36004" lon="8.9098">
        <ele>1607.4</ele>
        <time>2015-06-28T08:40:03Z</time>
      </trkpt>
      <trkpt lat="42.36006" lon="8.90978">
        <ele>1608</ele>
        <time>2015-06-28T08:40:13Z</time>
      </trkpt>
      <trkpt lat="42.36011" lon="8.90979">
        <ele>1609.6</ele>
        <time>2015-06-28T08:40:38Z</time>
      </trkpt>
      <trkpt lat="42.36023" lon="8.90969">
        <ele>1611.2</ele>
        <time>2015-06-28T08:41:12Z</time>
      </trkpt>
      <trkpt lat="42.36031" lon="8.90954">
        <ele>1611.6</ele>
        <time>2015-06-28T08:41:45Z</time>
      </trkpt>
      <trkpt lat="42.3604" lon="8.90937">
        <ele>1611.8</ele>
        <time>2015-06-28T08:42:19Z</time>
      </trkpt>
      <trkpt lat="42.36042" lon="8.90936">
        <ele>1613</ele>
        <time>2015-06-28T08:42:27Z</time>
      </trkpt>
      <trkpt lat="42.36043" lon="8.90936">
        <ele>1612.8</ele>
        <time>2015-06-28T08:42:29Z</time>
      </trkpt>
      <trkpt lat="42.36045" lon="8.90934">
        <ele>1614.4</ele>
        <time>2015-06-28T08:42:37Z</time>
      </trkpt>
      <trkpt lat="42.3605" lon="8.90928">
        <ele>1615.8</ele>
        <time>2015-06-28T08:42:52Z</time>
      </trkpt>
      <trkpt lat="42.36054" lon="8.90929">
        <ele>1617</ele>
        <time>2015-06-28T08:43:03Z</time>
      </trkpt>
      <trkpt lat="42.36061" lon="8.90928">
        <ele>1618</ele>
        <time>2015-06-28T08:43:15Z</time>
      </trkpt>
      <trkpt lat="42.36071" lon="8.90933">
        <ele>1619.8</ele>
        <time>2015-06-28T08:43:46Z</time>
      </trkpt>
      <trkpt lat="42.36077" lon="8.90936">
        <ele>1620.6</ele>
        <time>2015-06-28T08:43:54Z</time>
      </trkpt>
      <trkpt lat="42.36082" lon="8.90944">
        <ele>1622.2</ele>
        <time>2015-06-28T08:44:08Z</time>
      </trkpt>
      <trkpt lat="42.36083" lon="8.90946">
        <ele>1623.4</ele>
        <time>2015-06-28T08:44:19Z</time>
      </trkpt>
      <trkpt lat="42.36093" lon="8.90953">
        <ele>1625</ele>
        <time>2015-06-28T08:44:43Z</time>
      </trkpt>
      <trkpt lat="42.36093" lon="8.90956">
        <ele>1625.6</ele>
        <time>2015-06-28T08:44:50Z</time>
      </trkpt>
      <trkpt lat="42.36092" lon="8.90962">
        <ele>1626.8</ele>
        <time>2015-06-28T08:44:58Z</time>
      </trkpt>
      <trkpt lat="42.36094" lon="8.90968">
        <ele>1628.4</ele>
        <time>2015-06-28T08:45:11Z</time>
      </trkpt>
      <trkpt lat="42.36098" lon="8.90974">
        <ele>1629.4</ele>
        <time>2015-06-28T08:45:24Z</time>
      </trkpt>
      <trkpt lat="42.36102" lon="8.90975">
        <ele>1630.8</ele>
        <time>2015-06-28T08:45:35Z</time>
      </trkpt>
      <trkpt lat="42.36105" lon="8.90977">
        <ele>1632.2</ele>
        <time>2015-06-28T08:45:44Z</time>
      </trkpt>
      <trkpt lat="42.36106" lon="8.90977">
        <ele>1632.4</ele>
        <time>2015-06-28T08:45:45Z</time>
      </trkpt>
      <trkpt lat="42.36107" lon="8.90983">
        <ele>1633.6</ele>
        <time>2015-06-28T08:45:59Z</time>
      </trkpt>
      <trkpt lat="42.3611" lon="8.90982">
        <ele>1635</ele>
        <time>2015-06-28T08:46:09Z</time>
      </trkpt>
      <trkpt lat="42.36115" lon="8.90981">
        <ele>1636.2</ele>
        <time>2015-06-28T08:46:22Z</time>
      </trkpt>
      <trkpt lat="42.36117" lon="8.90981">
        <ele>1637.2</ele>
        <time>2015-06-28T08:46:33Z</time>
      </trkpt>
      <trkpt lat="42.3612" lon="8.90982">
        <ele>1638.6</ele>
        <time>2015-06-28T08:46:40Z</time>
      </trkpt>
      <trkpt lat="42.36125" lon="8.90983">
        <ele>1640.4</ele>
        <time>2015-06-28T08:46:52Z</time>
      </trkpt>
      <trkpt lat="42.36126" lon="8.90985">
        <ele>1641.2</ele>
        <time>2015-06-28T08:47:00Z</time>
      </trkpt>
      <trkpt lat="42.36128" lon="8.90984">
        <ele>1642.6</ele>
        <time>2015-06-28T08:47:09Z</time>
      </trkpt>
      <trkpt lat="42.36131" lon="8.90987">
        <ele>1644.6</ele>
        <time>2015-06-28T08:47:40Z</time>
      </trkpt>
      <trkpt lat="42.36141" lon="8.90987">
        <ele>1646.2</ele>
        <time>2015-06-28T08:48:07Z</time>
      </trkpt>
      <trkpt lat="42.36145" lon="8.90986">
        <ele>1647</ele>
        <time>2015-06-28T08:48:15Z</time>
      </trkpt>
      <trkpt lat="42.36151" lon="8.90984">
        <ele>1648.8</ele>
        <time>2015-06-28T08:48:27Z</time>
      </trkpt>
      <trkpt lat="42.36156" lon="8.90984">
        <ele>1650</ele>
        <time>2015-06-28T08:48:36Z</time>
      </trkpt>
      <trkpt lat="42.3616" lon="8.90982">
        <ele>1651</ele>
        <time>2015-06-28T08:48:45Z</time>
      </trkpt>
      <trkpt lat="42.36163" lon="8.90983">
        <ele>1652.8</ele>
        <time>2015-06-28T08:48:57Z</time>
      </trkpt>
      <trkpt lat="42.36166" lon="8.90984">
        <ele>1654</ele>
        <time>2015-06-28T08:49:07Z</time>
      </trkpt>
      <trkpt lat="42.36171" lon="8.90985">
        <ele>1655.4</ele>
        <time>2015-06-28T08:49:24Z</time>
      </trkpt>
      <trkpt lat="42.36174" lon="8.90983">
        <ele>1656.8</ele>
        <time>2015-06-28T08:49:34Z</time>
      </trkpt>
      <trkpt lat="42.36177" lon="8.90984">
        <ele>1658</ele>
        <time>2015-06-28T08:49:43Z</time>
      </trkpt>
      <trkpt lat="42.36181" lon="8.90986">
        <ele>1659</ele>
        <time>2015-06-28T08:49:53Z</time>
      </trkpt>
      <trkpt lat="42.36184" lon="8.90988">
        <ele>1660.2</ele>
        <time>2015-06-28T08:50:00Z</time>
      </trkpt>
      <trkpt lat="42.36187" lon="8.9099">
        <ele>1661.8</ele>
        <time>2015-06-28T08:50:12Z</time>
      </trkpt>
      <trkpt lat="42.36189" lon="8.90991">
        <ele>1663.4</ele>
        <time>2015-06-28T08:50:26Z</time>
      </trkpt>
      <trkpt lat="42.36191" lon="8.90989">
        <ele>1665.2</ele>
        <time>2015-06-28T08:50:47Z</time>
      </trkpt>
      <trkpt lat="42.36193" lon="8.9099">
        <ele>1665.8</ele>
        <time>2015-06-28T08:50:54Z</time>
      </trkpt>
      <trkpt lat="42.36197" lon="8.90986">
        <ele>1667.4</ele>
        <time>2015-06-28T08:51:06Z</time>
      </trkpt>
      <trkpt lat="42.36201" lon="8.90986">
        <ele>1669.6</ele>
        <time>2015-06-28T08:51:25Z</time>
      </trkpt>
      <trkpt lat="42.36204" lon="8.9099">
        <ele>1670.6</ele>
        <time>2015-06-28T08:51:37Z</time>
      </trkpt>
      <trkpt lat="42.3621" lon="8.90986">
        <ele>1672</ele>
        <time>2015-06-28T08:51:51Z</time>
      </trkpt>
      <trkpt lat="42.36214" lon="8.90983">
        <ele>1673</ele>
        <time>2015-06-28T08:52:03Z</time>
      </trkpt>
      <trkpt lat="42.36217" lon="8.90982">
        <ele>1674.2</ele>
        <time>2015-06-28T08:52:11Z</time>
      </trkpt>
      <trkpt lat="42.36221" lon="8.90973">
        <ele>1675.8</ele>
        <time>2015-06-28T08:52:24Z</time>
      </trkpt>
      <trkpt lat="42.36226" lon="8.90975">
        <ele>1677.2</ele>
        <time>2015-06-28T08:52:37Z</time>
      </trkpt>
      <trkpt lat="42.36232" lon="8.90975">
        <ele>1678.4</ele>
        <time>2015-06-28T08:52:48Z</time>
      </trkpt>
      <trkpt lat="42.36238" lon="8.90974">
        <ele>1681</ele>
        <time>2015-06-28T08:54:02Z</time>
      </trkpt>
      <trkpt lat="42.3624" lon="8.90967">
        <ele>1683</ele>
        <time>2015-06-28T08:54:13Z</time>
      </trkpt>
      <trkpt lat="42.3624" lon="8.90962">
        <ele>1683.8</ele>
        <time>2015-06-28T08:54:21Z</time>
      </trkpt>
      <trkpt lat="42.3624" lon="8.90956">
        <ele>1685.6</ele>
        <time>2015-06-28T08:54:30Z</time>
      </trkpt>
      <trkpt lat="42.36241" lon="8.90956">
        <ele>1686.6</ele>
        <time>2015-06-28T08:54:40Z</time>
      </trkpt>
      <trkpt lat="42.36239" lon="8.90945">
        <ele>1688.4</ele>
        <time>2015-06-28T08:54:58Z</time>
      </trkpt>
      <trkpt lat="42.36241" lon="8.90943">
        <ele>1689.2</ele>
        <time>2015-06-28T08:55:07Z</time>
      </trkpt>
      <trkpt lat="42.36241" lon="8.90938">
        <ele>1690.8</ele>
        <time>2015-06-28T08:55:17Z</time>
      </trkpt>
      <trkpt lat="42.36241" lon="8.90931">
        <ele>1692</ele>
        <time>2015-06-28T08:55:28Z</time>
      </trkpt>
      <trkpt lat="42.36243" lon="8.90932">
        <ele>1693.2</ele>
        <time>2015-06-28T08:55:39Z</time>
      </trkpt>
      <trkpt lat="42.36244" lon="8.90933">
        <ele>1694.2</ele>
        <time>2015-06-28T08:55:46Z</time>
      </trkpt>
      <trkpt lat="42.36247" lon="8.90926">
        <ele>1694.8</ele>
        <time>2015-06-28T08:55:51Z</time>
      </trkpt>
      <trkpt lat="42.36248" lon="8.90924">
        <ele>1695.2</ele>
        <time>2015-06-28T08:55:53Z</time>
      </trkpt>
      <trkpt lat="42.36248" lon="8.90923">
        <ele>1695.6</ele>
        <time>2015-06-28T08:55:54Z</time>
      </trkpt>
      <trkpt lat="42.36247" lon="8.90919">
        <ele>1696</ele>
        <time>2015-06-28T08:55:58Z</time>
      </trkpt>
      <trkpt lat="42.36246" lon="8.90916">
        <ele>1696.4</ele>
        <time>2015-06-28T08:56:02Z</time>
      </trkpt>
      <trkpt lat="42.36243" lon="8.90908">
        <ele>1697</ele>
        <time>2015-06-28T08:56:11Z</time>
      </trkpt>
      <trkpt lat="42.3624" lon="8.90897">
        <ele>1698.4</ele>
        <time>2015-06-28T08:56:24Z</time>
      </trkpt>
      <trkpt lat="42.36245" lon="8.909">
        <ele>1699.6</ele>
        <time>2015-06-28T08:56:38Z</time>
      </trkpt>
      <trkpt lat="42.36244" lon="8.90885">
        <ele>1700.6</ele>
        <time>2015-06-28T08:57:43Z</time>
      </trkpt>
      <trkpt lat="42.36244" lon="8.90883">
        <ele>1700.6</ele>
        <time>2015-06-28T08:57:47Z</time>
      </trkpt>
      <trkpt lat="42.3624" lon="8.90881">
        <ele>1699</ele>
        <time>2015-06-28T08:57:54Z</time>
      </trkpt>
      <trkpt lat="42.36238" lon="8.90877">
        <ele>1698</ele>
        <time>2015-06-28T08:58:02Z</time>
      </trkpt>
      <trkpt lat="42.36233" lon="8.90875">
        <ele>1697.2</ele>
        <time>2015-06-28T08:58:09Z</time>
      </trkpt>
      <trkpt lat="42.36233" lon="8.90869">
        <ele>1697.4</ele>
        <time>2015-06-28T08:58:34Z</time>
      </trkpt>
      <trkpt lat="42.36231" lon="8.90863">
        <ele>1697.6</ele>
        <time>2015-06-28T08:59:18Z</time>
      </trkpt>
    </trkseg>
  </trk>
</gpx>